<?xml version="1.0" encoding="UTF-8" standalone="no" ?><gpx xmlns="http://www.topografix.com/GPX/1/1" xmlns:gpxx="http://www.garmin.com/xmlschemas/GpxExtensions/v3" xmlns:wptx1="http://www.garmin.com/xmlschemas/WaypointExtension/v1" xmlns:gpxtpx="http://www.garmin.com/xmlschemas/TrackPointExtension/v1" creator="GuideVTT.com" version="1.1" xmlns:xsi="http://www.w3.org/2001/XMLSchema-instance" xsi:schemaLocation="http://www.topografix.com/GPX/1/1 http://www.topografix.com/GPX/1/1/gpx.xsd http://www.garmin.com/xmlschemas/GpxExtensions/v3 http://www8.garmin.com/xmlschemas/GpxExtensionsv3.xsd http://www.garmin.com/xmlschemas/WaypointExtension/v1 http://www8.garmin.com/xmlschemas/WaypointExtensionv1.xsd http://www.garmin.com/xmlschemas/TrackPointExtension/v1 http://www.garmin.com/xmlschemas/TrackPointExtensionv1.xsd">
<metadata><link href="http://www.garmin.com"><text>Garmin International</text></link><time>2013-06-22T15:13:50Z</time></metadata>
<trk><name>007-couvet-st-croix.gpx</name><extensions><gpxx:TrackExtension><gpxx:DisplayColor>Cyan</gpxx:DisplayColor></gpxx:TrackExtension></extensions><trkseg>
<trkpt lat="46.92337696" lon="6.63376800"><ele></ele><time>2014-7-4T16:35:49Z</time></trkpt>
<trkpt lat="46.92334101" lon="6.63376800"><ele></ele><time>2014-7-4T16:35:52Z</time></trkpt>
<trkpt lat="46.92321796" lon="6.63376196"><ele></ele><time>2014-7-4T16:35:55Z</time></trkpt>
<trkpt lat="46.92292300" lon="6.63406103"><ele></ele><time>2014-7-4T16:35:58Z</time></trkpt>
<trkpt lat="46.92292401" lon="6.63412297"><ele></ele><time>2014-7-4T16:36:1Z</time></trkpt>
<trkpt lat="46.92305502" lon="6.63471197"><ele></ele><time>2014-7-4T16:36:4Z</time></trkpt>
<trkpt lat="46.92308100" lon="6.63476402"><ele></ele><time>2014-7-4T16:36:7Z</time></trkpt>
<trkpt lat="46.92337998" lon="6.63499502"><ele></ele><time>2014-7-4T16:36:10Z</time></trkpt>
<trkpt lat="46.92346296" lon="6.63501900"><ele></ele><time>2014-7-4T16:36:13Z</time></trkpt>
<trkpt lat="46.92384300" lon="6.63509603"><ele></ele><time>2014-7-4T16:36:16Z</time></trkpt>
<trkpt lat="46.92424198" lon="6.63518202"><ele></ele><time>2014-7-4T16:36:19Z</time></trkpt>
<trkpt lat="46.92443501" lon="6.63521396"><ele></ele><time>2014-7-4T16:36:22Z</time></trkpt>
<trkpt lat="46.92448103" lon="6.63522201"><ele></ele><time>2014-7-4T16:36:25Z</time></trkpt>
<trkpt lat="46.92485302" lon="6.63534698"><ele></ele><time>2014-7-4T16:36:28Z</time></trkpt>
<trkpt lat="46.92520103" lon="6.63554002"><ele></ele><time>2014-7-4T16:36:31Z</time></trkpt>
<trkpt lat="46.92551804" lon="6.63584797"><ele></ele><time>2014-7-4T16:36:34Z</time></trkpt>
<trkpt lat="46.92581099" lon="6.63624301"><ele></ele><time>2014-7-4T16:36:37Z</time></trkpt>
<trkpt lat="46.92584502" lon="6.63629497"><ele></ele><time>2014-7-4T16:36:40Z</time></trkpt>
<trkpt lat="46.92612698" lon="6.63677903"><ele></ele><time>2014-7-4T16:36:43Z</time></trkpt>
<trkpt lat="46.92637299" lon="6.63722796"><ele></ele><time>2014-7-4T16:36:46Z</time></trkpt>
<trkpt lat="46.92661104" lon="6.63767396"><ele></ele><time>2014-7-4T16:36:49Z</time></trkpt>
<trkpt lat="46.92686501" lon="6.63812701"><ele></ele><time>2014-7-4T16:36:52Z</time></trkpt>
<trkpt lat="46.92713097" lon="6.63858298"><ele></ele><time>2014-7-4T16:36:55Z</time></trkpt>
<trkpt lat="46.92738201" lon="6.63902898"><ele></ele><time>2014-7-4T16:36:58Z</time></trkpt>
<trkpt lat="46.92763204" lon="6.63948303"><ele></ele><time>2014-7-4T16:37:1Z</time></trkpt>
<trkpt lat="46.92786899" lon="6.63989902"><ele></ele><time>2014-7-4T16:37:4Z</time></trkpt>
<trkpt lat="46.92812799" lon="6.64027596"><ele></ele><time>2014-7-4T16:37:7Z</time></trkpt>
<trkpt lat="46.92828298" lon="6.64046103"><ele></ele><time>2014-7-4T16:37:10Z</time></trkpt>
<trkpt lat="46.92836998" lon="6.64056899"><ele></ele><time>2014-7-4T16:37:13Z</time></trkpt>
<trkpt lat="46.92847702" lon="6.64066597"><ele></ele><time>2014-7-4T16:37:16Z</time></trkpt>
<trkpt lat="46.92845204" lon="6.64081701"><ele></ele><time>2014-7-4T16:37:19Z</time></trkpt>
<trkpt lat="46.92836001" lon="6.64096604"><ele></ele><time>2014-7-4T16:37:22Z</time></trkpt>
<trkpt lat="46.92829102" lon="6.64113301"><ele></ele><time>2014-7-4T16:37:25Z</time></trkpt>
<trkpt lat="46.92858799" lon="6.64159200"><ele></ele><time>2014-7-4T16:37:28Z</time></trkpt>
<trkpt lat="46.92884800" lon="6.64197799"><ele></ele><time>2014-7-4T16:37:31Z</time></trkpt>
<trkpt lat="46.92907498" lon="6.64244000"><ele></ele><time>2014-7-4T16:37:34Z</time></trkpt>
<trkpt lat="46.92927397" lon="6.64287502"><ele></ele><time>2014-7-4T16:37:37Z</time></trkpt>
<trkpt lat="46.92944303" lon="6.64321801"><ele></ele><time>2014-7-4T16:37:40Z</time></trkpt>
<trkpt lat="46.92944496" lon="6.64320501"><ele></ele><time>2014-7-4T16:37:43Z</time></trkpt>
<trkpt lat="46.92944496" lon="6.64319797"><ele></ele><time>2014-7-4T16:37:46Z</time></trkpt>
<trkpt lat="46.92953498" lon="6.64333996"><ele></ele><time>2014-7-4T16:37:49Z</time></trkpt>
<trkpt lat="46.92963003" lon="6.64349704"><ele></ele><time>2014-7-4T16:37:52Z</time></trkpt>
<trkpt lat="46.92991401" lon="6.64389904"><ele></ele><time>2014-7-4T16:37:55Z</time></trkpt>
<trkpt lat="46.93002499" lon="6.64403197"><ele></ele><time>2014-7-4T16:37:58Z</time></trkpt>
<trkpt lat="46.93037200" lon="6.64441897"><ele></ele><time>2014-7-4T16:38:1Z</time></trkpt>
<trkpt lat="46.93064399" lon="6.64485198"><ele></ele><time>2014-7-4T16:38:4Z</time></trkpt>
<trkpt lat="46.93087500" lon="6.64534701"><ele></ele><time>2014-7-4T16:38:7Z</time></trkpt>
<trkpt lat="46.93109502" lon="6.64583601"><ele></ele><time>2014-7-4T16:38:10Z</time></trkpt>
<trkpt lat="46.93127196" lon="6.64634203"><ele></ele><time>2014-7-4T16:38:13Z</time></trkpt>
<trkpt lat="46.93138797" lon="6.64688702"><ele></ele><time>2014-7-4T16:38:16Z</time></trkpt>
<trkpt lat="46.93144396" lon="6.64745900"><ele></ele><time>2014-7-4T16:38:19Z</time></trkpt>
<trkpt lat="46.93145896" lon="6.64805898"><ele></ele><time>2014-7-4T16:38:22Z</time></trkpt>
<trkpt lat="46.93147204" lon="6.64865501"><ele></ele><time>2014-7-4T16:38:25Z</time></trkpt>
<trkpt lat="46.93149903" lon="6.64921903"><ele></ele><time>2014-7-4T16:38:28Z</time></trkpt>
<trkpt lat="46.93158100" lon="6.64978196"><ele></ele><time>2014-7-4T16:38:31Z</time></trkpt>
<trkpt lat="46.93167103" lon="6.65029099"><ele></ele><time>2014-7-4T16:38:34Z</time></trkpt>
<trkpt lat="46.93170598" lon="6.65082903"><ele></ele><time>2014-7-4T16:38:37Z</time></trkpt>
<trkpt lat="46.93170204" lon="6.65090304"><ele></ele><time>2014-7-4T16:38:40Z</time></trkpt>
<trkpt lat="46.93160104" lon="6.65148902"><ele></ele><time>2014-7-4T16:38:43Z</time></trkpt>
<trkpt lat="46.93163297" lon="6.65190099"><ele></ele><time>2014-7-4T16:38:46Z</time></trkpt>
<trkpt lat="46.93159802" lon="6.65239502"><ele></ele><time>2014-7-4T16:38:49Z</time></trkpt>
<trkpt lat="46.93163398" lon="6.65300396"><ele></ele><time>2014-7-4T16:38:52Z</time></trkpt>
<trkpt lat="46.93171604" lon="6.65353102"><ele></ele><time>2014-7-4T16:38:55Z</time></trkpt>
<trkpt lat="46.93186699" lon="6.65406997"><ele></ele><time>2014-7-4T16:38:58Z</time></trkpt>
<trkpt lat="46.93204201" lon="6.65461698"><ele></ele><time>2014-7-4T16:39:1Z</time></trkpt>
<trkpt lat="46.93216204" lon="6.65518401"><ele></ele><time>2014-7-4T16:39:4Z</time></trkpt>
<trkpt lat="46.93221903" lon="6.65570403"><ele></ele><time>2014-7-4T16:39:7Z</time></trkpt>
<trkpt lat="46.93226203" lon="6.65623502"><ele></ele><time>2014-7-4T16:39:10Z</time></trkpt>
<trkpt lat="46.93230000" lon="6.65678102"><ele></ele><time>2014-7-4T16:39:13Z</time></trkpt>
<trkpt lat="46.93234200" lon="6.65734302"><ele></ele><time>2014-7-4T16:39:16Z</time></trkpt>
<trkpt lat="46.93235499" lon="6.65761099"><ele></ele><time>2014-7-4T16:39:19Z</time></trkpt>
<trkpt lat="46.93242900" lon="6.65813402"><ele></ele><time>2014-7-4T16:39:22Z</time></trkpt>
<trkpt lat="46.93252397" lon="6.65868698"><ele></ele><time>2014-7-4T16:39:25Z</time></trkpt>
<trkpt lat="46.93262204" lon="6.65907397"><ele></ele><time>2014-7-4T16:39:28Z</time></trkpt>
<trkpt lat="46.93279797" lon="6.65957504"><ele></ele><time>2014-7-4T16:39:31Z</time></trkpt>
<trkpt lat="46.93291599" lon="6.65987302"><ele></ele><time>2014-7-4T16:39:34Z</time></trkpt>
<trkpt lat="46.93314498" lon="6.66041398"><ele></ele><time>2014-7-4T16:39:37Z</time></trkpt>
<trkpt lat="46.93332000" lon="6.66094397"><ele></ele><time>2014-7-4T16:39:40Z</time></trkpt>
<trkpt lat="46.93333601" lon="6.66100902"><ele></ele><time>2014-7-4T16:39:43Z</time></trkpt>
<trkpt lat="46.93342703" lon="6.66164302"><ele></ele><time>2014-7-4T16:39:46Z</time></trkpt>
<trkpt lat="46.93345402" lon="6.66217100"><ele></ele><time>2014-7-4T16:39:49Z</time></trkpt>
<trkpt lat="46.93343902" lon="6.66275396"><ele></ele><time>2014-7-4T16:39:52Z</time></trkpt>
<trkpt lat="46.93341899" lon="6.66332603"><ele></ele><time>2014-7-4T16:39:55Z</time></trkpt>
<trkpt lat="46.93340298" lon="6.66389901"><ele></ele><time>2014-7-4T16:39:58Z</time></trkpt>
<trkpt lat="46.93339401" lon="6.66447996"><ele></ele><time>2014-7-4T16:40:1Z</time></trkpt>
<trkpt lat="46.93339099" lon="6.66504197"><ele></ele><time>2014-7-4T16:40:4Z</time></trkpt>
<trkpt lat="46.93341102" lon="6.66541404"><ele></ele><time>2014-7-4T16:40:7Z</time></trkpt>
<trkpt lat="46.93346702" lon="6.66594001"><ele></ele><time>2014-7-4T16:40:10Z</time></trkpt>
<trkpt lat="46.93355402" lon="6.66637997"><ele></ele><time>2014-7-4T16:40:13Z</time></trkpt>
<trkpt lat="46.93367204" lon="6.66681801"><ele></ele><time>2014-7-4T16:40:16Z</time></trkpt>
<trkpt lat="46.93388301" lon="6.66735797"><ele></ele><time>2014-7-4T16:40:19Z</time></trkpt>
<trkpt lat="46.93411502" lon="6.66781001"><ele></ele><time>2014-7-4T16:40:22Z</time></trkpt>
<trkpt lat="46.93438299" lon="6.66833002"><ele></ele><time>2014-7-4T16:40:25Z</time></trkpt>
<trkpt lat="46.93450402" lon="6.66855600"><ele></ele><time>2014-7-4T16:40:28Z</time></trkpt>
<trkpt lat="46.93476696" lon="6.66906302"><ele></ele><time>2014-7-4T16:40:31Z</time></trkpt>
<trkpt lat="46.93504700" lon="6.66946300"><ele></ele><time>2014-7-4T16:40:34Z</time></trkpt>
<trkpt lat="46.93523903" lon="6.66968504"><ele></ele><time>2014-7-4T16:40:37Z</time></trkpt>
<trkpt lat="46.93561102" lon="6.67001202"><ele></ele><time>2014-7-4T16:40:40Z</time></trkpt>
<trkpt lat="46.93581101" lon="6.67015099"><ele></ele><time>2014-7-4T16:40:43Z</time></trkpt>
<trkpt lat="46.93600598" lon="6.67025601"><ele></ele><time>2014-7-4T16:40:46Z</time></trkpt>
<trkpt lat="46.93611997" lon="6.67032097"><ele></ele><time>2014-7-4T16:40:49Z</time></trkpt>
<trkpt lat="46.93623799" lon="6.67061702"><ele></ele><time>2014-7-4T16:40:52Z</time></trkpt>
<trkpt lat="46.93627303" lon="6.67091399"><ele></ele><time>2014-7-4T16:40:55Z</time></trkpt>
<trkpt lat="46.93629901" lon="6.67110703"><ele></ele><time>2014-7-4T16:40:58Z</time></trkpt>
<trkpt lat="46.93631896" lon="6.67120200"><ele></ele><time>2014-7-4T16:41:1Z</time></trkpt>
<trkpt lat="46.93640697" lon="6.67125396"><ele></ele><time>2014-7-4T16:41:4Z</time></trkpt>
<trkpt lat="46.93676001" lon="6.67129001"><ele></ele><time>2014-7-4T16:41:7Z</time></trkpt>
<trkpt lat="46.93699898" lon="6.67151397"><ele></ele><time>2014-7-4T16:41:10Z</time></trkpt>
<trkpt lat="46.93720702" lon="6.67193801"><ele></ele><time>2014-7-4T16:41:13Z</time></trkpt>
<trkpt lat="46.93743300" lon="6.67236700"><ele></ele><time>2014-7-4T16:41:16Z</time></trkpt>
<trkpt lat="46.93757004" lon="6.67260999"><ele></ele><time>2014-7-4T16:41:19Z</time></trkpt>
<trkpt lat="46.93764900" lon="6.67277302"><ele></ele><time>2014-7-4T16:41:22Z</time></trkpt>
<trkpt lat="46.93770700" lon="6.67294099"><ele></ele><time>2014-7-4T16:41:25Z</time></trkpt>
<trkpt lat="46.93779803" lon="6.67349302"><ele></ele><time>2014-7-4T16:41:28Z</time></trkpt>
<trkpt lat="46.93783097" lon="6.67367600"><ele></ele><time>2014-7-4T16:41:31Z</time></trkpt>
<trkpt lat="46.93787204" lon="6.67419702"><ele></ele><time>2014-7-4T16:41:34Z</time></trkpt>
<trkpt lat="46.93778797" lon="6.67471896"><ele></ele><time>2014-7-4T16:41:37Z</time></trkpt>
<trkpt lat="46.93775402" lon="6.67489699"><ele></ele><time>2014-7-4T16:41:40Z</time></trkpt>
<trkpt lat="46.93774296" lon="6.67495399"><ele></ele><time>2014-7-4T16:41:43Z</time></trkpt>
<trkpt lat="46.93762301" lon="6.67549898"><ele></ele><time>2014-7-4T16:41:46Z</time></trkpt>
<trkpt lat="46.93746996" lon="6.67597700"><ele></ele><time>2014-7-4T16:41:49Z</time></trkpt>
<trkpt lat="46.93739302" lon="6.67619501"><ele></ele><time>2014-7-4T16:41:52Z</time></trkpt>
<trkpt lat="46.93727399" lon="6.67655099"><ele></ele><time>2014-7-4T16:41:55Z</time></trkpt>
<trkpt lat="46.93708900" lon="6.67672198"><ele></ele><time>2014-7-4T16:41:58Z</time></trkpt>
<trkpt lat="46.93705204" lon="6.67671402"><ele></ele><time>2014-7-4T16:42:1Z</time></trkpt>
<trkpt lat="46.93677301" lon="6.67659600"><ele></ele><time>2014-7-4T16:42:4Z</time></trkpt>
<trkpt lat="46.93643999" lon="6.67646902"><ele></ele><time>2014-7-4T16:42:7Z</time></trkpt>
<trkpt lat="46.93609701" lon="6.67661000"><ele></ele><time>2014-7-4T16:42:10Z</time></trkpt>
<trkpt lat="46.93580599" lon="6.67680102"><ele></ele><time>2014-7-4T16:42:13Z</time></trkpt>
<trkpt lat="46.93546501" lon="6.67697604"><ele></ele><time>2014-7-4T16:42:16Z</time></trkpt>
<trkpt lat="46.93509897" lon="6.67711099"><ele></ele><time>2014-7-4T16:42:19Z</time></trkpt>
<trkpt lat="46.93478297" lon="6.67717896"><ele></ele><time>2014-7-4T16:42:22Z</time></trkpt>
<trkpt lat="46.93441400" lon="6.67717796"><ele></ele><time>2014-7-4T16:42:25Z</time></trkpt>
<trkpt lat="46.93404604" lon="6.67713203"><ele></ele><time>2014-7-4T16:42:28Z</time></trkpt>
<trkpt lat="46.93378402" lon="6.67708701"><ele></ele><time>2014-7-4T16:42:31Z</time></trkpt>
<trkpt lat="46.93342200" lon="6.67710101"><ele></ele><time>2014-7-4T16:42:34Z</time></trkpt>
<trkpt lat="46.93309897" lon="6.67732799"><ele></ele><time>2014-7-4T16:42:37Z</time></trkpt>
<trkpt lat="46.93288104" lon="6.67775899"><ele></ele><time>2014-7-4T16:42:40Z</time></trkpt>
<trkpt lat="46.93281599" lon="6.67828102"><ele></ele><time>2014-7-4T16:42:43Z</time></trkpt>
<trkpt lat="46.93291004" lon="6.67880304"><ele></ele><time>2014-7-4T16:42:46Z</time></trkpt>
<trkpt lat="46.93287701" lon="6.67933303"><ele></ele><time>2014-7-4T16:42:49Z</time></trkpt>
<trkpt lat="46.93282303" lon="6.67986704"><ele></ele><time>2014-7-4T16:42:52Z</time></trkpt>
<trkpt lat="46.93290199" lon="6.68037700"><ele></ele><time>2014-7-4T16:42:55Z</time></trkpt>
<trkpt lat="46.93309997" lon="6.68079802"><ele></ele><time>2014-7-4T16:42:58Z</time></trkpt>
<trkpt lat="46.93324498" lon="6.68126296"><ele></ele><time>2014-7-4T16:43:1Z</time></trkpt>
<trkpt lat="46.93343299" lon="6.68171701"><ele></ele><time>2014-7-4T16:43:4Z</time></trkpt>
<trkpt lat="46.93363700" lon="6.68213602"><ele></ele><time>2014-7-4T16:43:7Z</time></trkpt>
<trkpt lat="46.93371596" lon="6.68264698"><ele></ele><time>2014-7-4T16:43:10Z</time></trkpt>
<trkpt lat="46.93392802" lon="6.68309198"><ele></ele><time>2014-7-4T16:43:13Z</time></trkpt>
<trkpt lat="46.93411301" lon="6.68354804"><ele></ele><time>2014-7-4T16:43:16Z</time></trkpt>
<trkpt lat="46.93406004" lon="6.68407702"><ele></ele><time>2014-7-4T16:43:19Z</time></trkpt>
<trkpt lat="46.93419096" lon="6.68453098"><ele></ele><time>2014-7-4T16:43:22Z</time></trkpt>
<trkpt lat="46.93431401" lon="6.68486098"><ele></ele><time>2014-7-4T16:43:25Z</time></trkpt>
<trkpt lat="46.93434804" lon="6.68537898"><ele></ele><time>2014-7-4T16:43:28Z</time></trkpt>
<trkpt lat="46.93427302" lon="6.68589698"><ele></ele><time>2014-7-4T16:43:31Z</time></trkpt>
<trkpt lat="46.93438299" lon="6.68639797"><ele></ele><time>2014-7-4T16:43:34Z</time></trkpt>
<trkpt lat="46.93425198" lon="6.68686802"><ele></ele><time>2014-7-4T16:43:37Z</time></trkpt>
<trkpt lat="46.93415903" lon="6.68738100"><ele></ele><time>2014-7-4T16:43:40Z</time></trkpt>
<trkpt lat="46.93414704" lon="6.68783303"><ele></ele><time>2014-7-4T16:43:43Z</time></trkpt>
<trkpt lat="46.93415098" lon="6.68798600"><ele></ele><time>2014-7-4T16:43:46Z</time></trkpt>
<trkpt lat="46.93419599" lon="6.68821600"><ele></ele><time>2014-7-4T16:43:49Z</time></trkpt>
<trkpt lat="46.93430898" lon="6.68874599"><ele></ele><time>2014-7-4T16:43:52Z</time></trkpt>
<trkpt lat="46.93433203" lon="6.68891698"><ele></ele><time>2014-7-4T16:43:55Z</time></trkpt>
<trkpt lat="46.93436597" lon="6.68901103"><ele></ele><time>2014-7-4T16:43:58Z</time></trkpt>
<trkpt lat="46.93439498" lon="6.68932300"><ele></ele><time>2014-7-4T16:44:1Z</time></trkpt>
<trkpt lat="46.93451299" lon="6.68983002"><ele></ele><time>2014-7-4T16:44:4Z</time></trkpt>
<trkpt lat="46.93460100" lon="6.69034299"><ele></ele><time>2014-7-4T16:44:7Z</time></trkpt>
<trkpt lat="46.93455700" lon="6.69085898"><ele></ele><time>2014-7-4T16:44:10Z</time></trkpt>
<trkpt lat="46.93474802" lon="6.69124598"><ele></ele><time>2014-7-4T16:44:13Z</time></trkpt>
<trkpt lat="46.93477903" lon="6.69133198"><ele></ele><time>2014-7-4T16:44:16Z</time></trkpt>
<trkpt lat="46.93488196" lon="6.69164202"><ele></ele><time>2014-7-4T16:44:19Z</time></trkpt>
<trkpt lat="46.93510400" lon="6.69207897"><ele></ele><time>2014-7-4T16:44:22Z</time></trkpt>
<trkpt lat="46.93518003" lon="6.69257602"><ele></ele><time>2014-7-4T16:44:25Z</time></trkpt>
<trkpt lat="46.93527399" lon="6.69308597"><ele></ele><time>2014-7-4T16:44:28Z</time></trkpt>
<trkpt lat="46.93541002" lon="6.69359098"><ele></ele><time>2014-7-4T16:44:31Z</time></trkpt>
<trkpt lat="46.93555696" lon="6.69408803"><ele></ele><time>2014-7-4T16:44:34Z</time></trkpt>
<trkpt lat="46.93563600" lon="6.69459798"><ele></ele><time>2014-7-4T16:44:37Z</time></trkpt>
<trkpt lat="46.93574597" lon="6.69511599"><ele></ele><time>2014-7-4T16:44:40Z</time></trkpt>
<trkpt lat="46.93582803" lon="6.69563198"><ele></ele><time>2014-7-4T16:44:43Z</time></trkpt>
<trkpt lat="46.93595602" lon="6.69613397"><ele></ele><time>2014-7-4T16:44:46Z</time></trkpt>
<trkpt lat="46.93609097" lon="6.69663697"><ele></ele><time>2014-7-4T16:44:49Z</time></trkpt>
<trkpt lat="46.93617102" lon="6.69715002"><ele></ele><time>2014-7-4T16:44:52Z</time></trkpt>
<trkpt lat="46.93631200" lon="6.69763399"><ele></ele><time>2014-7-4T16:44:55Z</time></trkpt>
<trkpt lat="46.93644804" lon="6.69812601"><ele></ele><time>2014-7-4T16:44:58Z</time></trkpt>
<trkpt lat="46.93655097" lon="6.69846699"><ele></ele><time>2014-7-4T16:45:1Z</time></trkpt>
<trkpt lat="46.93663504" lon="6.69873596"><ele></ele><time>2014-7-4T16:45:4Z</time></trkpt>
<trkpt lat="46.93680000" lon="6.69921901"><ele></ele><time>2014-7-4T16:45:7Z</time></trkpt>
<trkpt lat="46.93702103" lon="6.69963903"><ele></ele><time>2014-7-4T16:45:10Z</time></trkpt>
<trkpt lat="46.93715698" lon="6.70013800"><ele></ele><time>2014-7-4T16:45:13Z</time></trkpt>
<trkpt lat="46.93720099" lon="6.70060404"><ele></ele><time>2014-7-4T16:45:16Z</time></trkpt>
<trkpt lat="46.93734800" lon="6.70110804"><ele></ele><time>2014-7-4T16:45:19Z</time></trkpt>
<trkpt lat="46.93750299" lon="6.70160098"><ele></ele><time>2014-7-4T16:45:22Z</time></trkpt>
<trkpt lat="46.93748899" lon="6.70214103"><ele></ele><time>2014-7-4T16:45:25Z</time></trkpt>
<trkpt lat="46.93758303" lon="6.70266003"><ele></ele><time>2014-7-4T16:45:28Z</time></trkpt>
<trkpt lat="46.93777104" lon="6.70303999"><ele></ele><time>2014-7-4T16:45:31Z</time></trkpt>
<trkpt lat="46.93782602" lon="6.70315297"><ele></ele><time>2014-7-4T16:45:34Z</time></trkpt>
<trkpt lat="46.93802903" lon="6.70365203"><ele></ele><time>2014-7-4T16:45:37Z</time></trkpt>
<trkpt lat="46.93828200" lon="6.70402704"><ele></ele><time>2014-7-4T16:45:40Z</time></trkpt>
<trkpt lat="46.93846900" lon="6.70447899"><ele></ele><time>2014-7-4T16:45:43Z</time></trkpt>
<trkpt lat="46.93860697" lon="6.70464302"><ele></ele><time>2014-7-4T16:45:46Z</time></trkpt>
<trkpt lat="46.93866002" lon="6.70490898"><ele></ele><time>2014-7-4T16:45:49Z</time></trkpt>
<trkpt lat="46.93864703" lon="6.70491301"><ele></ele><time>2014-7-4T16:45:52Z</time></trkpt>
<trkpt lat="46.93864896" lon="6.70490798"><ele></ele><time>2014-7-4T16:45:55Z</time></trkpt>
<trkpt lat="46.93865198" lon="6.70490202"><ele></ele><time>2014-7-4T16:45:58Z</time></trkpt>
<trkpt lat="46.93861401" lon="6.70490496"><ele></ele><time>2014-7-4T16:46:1Z</time></trkpt>
<trkpt lat="46.93856296" lon="6.70500001"><ele></ele><time>2014-7-4T16:46:4Z</time></trkpt>
<trkpt lat="46.93842801" lon="6.70499104"><ele></ele><time>2014-7-4T16:46:7Z</time></trkpt>
<trkpt lat="46.93837697" lon="6.70473900"><ele></ele><time>2014-7-4T16:46:10Z</time></trkpt>
<trkpt lat="46.93822500" lon="6.70426701"><ele></ele><time>2014-7-4T16:46:13Z</time></trkpt>
<trkpt lat="46.93790297" lon="6.70402997"><ele></ele><time>2014-7-4T16:46:16Z</time></trkpt>
<trkpt lat="46.93773600" lon="6.70385999"><ele></ele><time>2014-7-4T16:46:19Z</time></trkpt>
<trkpt lat="46.93766300" lon="6.70375597"><ele></ele><time>2014-7-4T16:46:22Z</time></trkpt>
<trkpt lat="46.93745102" lon="6.70338398"><ele></ele><time>2014-7-4T16:46:25Z</time></trkpt>
<trkpt lat="46.93735203" lon="6.70331902"><ele></ele><time>2014-7-4T16:46:28Z</time></trkpt>
<trkpt lat="46.93719403" lon="6.70295399"><ele></ele><time>2014-7-4T16:46:31Z</time></trkpt>
<trkpt lat="46.93694400" lon="6.70254503"><ele></ele><time>2014-7-4T16:46:34Z</time></trkpt>
<trkpt lat="46.93672003" lon="6.70212401"><ele></ele><time>2014-7-4T16:46:37Z</time></trkpt>
<trkpt lat="46.93669204" lon="6.70206903"><ele></ele><time>2014-7-4T16:46:40Z</time></trkpt>
<trkpt lat="46.93641401" lon="6.70165404"><ele></ele><time>2014-7-4T16:46:43Z</time></trkpt>
<trkpt lat="46.93629700" lon="6.70145798"><ele></ele><time>2014-7-4T16:46:46Z</time></trkpt>
<trkpt lat="46.93622801" lon="6.70132496"><ele></ele><time>2014-7-4T16:46:49Z</time></trkpt>
<trkpt lat="46.93617001" lon="6.70121298"><ele></ele><time>2014-7-4T16:46:52Z</time></trkpt>
<trkpt lat="46.93597002" lon="6.70071401"><ele></ele><time>2014-7-4T16:46:55Z</time></trkpt>
<trkpt lat="46.93576500" lon="6.70025904"><ele></ele><time>2014-7-4T16:46:58Z</time></trkpt>
<trkpt lat="46.93562997" lon="6.69976803"><ele></ele><time>2014-7-4T16:47:1Z</time></trkpt>
<trkpt lat="46.93543601" lon="6.69931297"><ele></ele><time>2014-7-4T16:47:4Z</time></trkpt>
<trkpt lat="46.93530701" lon="6.69895104"><ele></ele><time>2014-7-4T16:47:7Z</time></trkpt>
<trkpt lat="46.93516703" lon="6.69874300"><ele></ele><time>2014-7-4T16:47:10Z</time></trkpt>
<trkpt lat="46.93512504" lon="6.69867402"><ele></ele><time>2014-7-4T16:47:13Z</time></trkpt>
<trkpt lat="46.93489504" lon="6.69823900"><ele></ele><time>2014-7-4T16:47:16Z</time></trkpt>
<trkpt lat="46.93466797" lon="6.69782502"><ele></ele><time>2014-7-4T16:47:19Z</time></trkpt>
<trkpt lat="46.93445801" lon="6.69737801"><ele></ele><time>2014-7-4T16:47:22Z</time></trkpt>
<trkpt lat="46.93421099" lon="6.69696696"><ele></ele><time>2014-7-4T16:47:25Z</time></trkpt>
<trkpt lat="46.93401402" lon="6.69650998"><ele></ele><time>2014-7-4T16:47:28Z</time></trkpt>
<trkpt lat="46.93389399" lon="6.69623899"><ele></ele><time>2014-7-4T16:47:31Z</time></trkpt>
<trkpt lat="46.93356802" lon="6.69594102"><ele></ele><time>2014-7-4T16:47:34Z</time></trkpt>
<trkpt lat="46.93332897" lon="6.69552703"><ele></ele><time>2014-7-4T16:47:37Z</time></trkpt>
<trkpt lat="46.93310299" lon="6.69511297"><ele></ele><time>2014-7-4T16:47:40Z</time></trkpt>
<trkpt lat="46.93292898" lon="6.69467300"><ele></ele><time>2014-7-4T16:47:43Z</time></trkpt>
<trkpt lat="46.93274802" lon="6.69443202"><ele></ele><time>2014-7-4T16:47:46Z</time></trkpt>
<trkpt lat="46.93250201" lon="6.69397504"><ele></ele><time>2014-7-4T16:47:49Z</time></trkpt>
<trkpt lat="46.93230302" lon="6.69353298"><ele></ele><time>2014-7-4T16:47:52Z</time></trkpt>
<trkpt lat="46.93219598" lon="6.69334698"><ele></ele><time>2014-7-4T16:47:55Z</time></trkpt>
<trkpt lat="46.93195400" lon="6.69288397"><ele></ele><time>2014-7-4T16:47:58Z</time></trkpt>
<trkpt lat="46.93172702" lon="6.69245096"><ele></ele><time>2014-7-4T16:48:1Z</time></trkpt>
<trkpt lat="46.93152702" lon="6.69200798"><ele></ele><time>2014-7-4T16:48:4Z</time></trkpt>
<trkpt lat="46.93132502" lon="6.69153901"><ele></ele><time>2014-7-4T16:48:7Z</time></trkpt>
<trkpt lat="46.93115302" lon="6.69105998"><ele></ele><time>2014-7-4T16:48:10Z</time></trkpt>
<trkpt lat="46.93102696" lon="6.69070099"><ele></ele><time>2014-7-4T16:48:13Z</time></trkpt>
<trkpt lat="46.93095404" lon="6.69056403"><ele></ele><time>2014-7-4T16:48:16Z</time></trkpt>
<trkpt lat="46.93081900" lon="6.69035397"><ele></ele><time>2014-7-4T16:48:19Z</time></trkpt>
<trkpt lat="46.93058096" lon="6.68989297"><ele></ele><time>2014-7-4T16:48:22Z</time></trkpt>
<trkpt lat="46.93037803" lon="6.68942199"><ele></ele><time>2014-7-4T16:48:25Z</time></trkpt>
<trkpt lat="46.93021400" lon="6.68911496"><ele></ele><time>2014-7-4T16:48:28Z</time></trkpt>
<trkpt lat="46.93011501" lon="6.68898404"><ele></ele><time>2014-7-4T16:48:31Z</time></trkpt>
<trkpt lat="46.92997000" lon="6.68879502"><ele></ele><time>2014-7-4T16:48:34Z</time></trkpt>
<trkpt lat="46.92975098" lon="6.68836302"><ele></ele><time>2014-7-4T16:48:37Z</time></trkpt>
<trkpt lat="46.92961402" lon="6.68787503"><ele></ele><time>2014-7-4T16:48:40Z</time></trkpt>
<trkpt lat="46.92948301" lon="6.68735803"><ele></ele><time>2014-7-4T16:48:43Z</time></trkpt>
<trkpt lat="46.92933901" lon="6.68687398"><ele></ele><time>2014-7-4T16:48:46Z</time></trkpt>
<trkpt lat="46.92912502" lon="6.68640501"><ele></ele><time>2014-7-4T16:48:49Z</time></trkpt>
<trkpt lat="46.92893802" lon="6.68591601"><ele></ele><time>2014-7-4T16:48:52Z</time></trkpt>
<trkpt lat="46.92873602" lon="6.68544796"><ele></ele><time>2014-7-4T16:48:55Z</time></trkpt>
<trkpt lat="46.92848397" lon="6.68506298"><ele></ele><time>2014-7-4T16:48:58Z</time></trkpt>
<trkpt lat="46.92820603" lon="6.68467096"><ele></ele><time>2014-7-4T16:49:1Z</time></trkpt>
<trkpt lat="46.92802104" lon="6.68429000"><ele></ele><time>2014-7-4T16:49:4Z</time></trkpt>
<trkpt lat="46.92793102" lon="6.68407501"><ele></ele><time>2014-7-4T16:49:7Z</time></trkpt>
<trkpt lat="46.92769398" lon="6.68359296"><ele></ele><time>2014-7-4T16:49:10Z</time></trkpt>
<trkpt lat="46.92747798" lon="6.68311704"><ele></ele><time>2014-7-4T16:49:13Z</time></trkpt>
<trkpt lat="46.92729802" lon="6.68265603"><ele></ele><time>2014-7-4T16:49:16Z</time></trkpt>
<trkpt lat="46.92712996" lon="6.68216201"><ele></ele><time>2014-7-4T16:49:19Z</time></trkpt>
<trkpt lat="46.92696702" lon="6.68178700"><ele></ele><time>2014-7-4T16:49:22Z</time></trkpt>
<trkpt lat="46.92697800" lon="6.68177803"><ele></ele><time>2014-7-4T16:49:25Z</time></trkpt>
<trkpt lat="46.92698504" lon="6.68177602"><ele></ele><time>2014-7-4T16:49:28Z</time></trkpt>
<trkpt lat="46.92698797" lon="6.68177501"><ele></ele><time>2014-7-4T16:49:31Z</time></trkpt>
<trkpt lat="46.92698898" lon="6.68177401"><ele></ele><time>2014-7-4T16:49:34Z</time></trkpt>
<trkpt lat="46.92699602" lon="6.68177300"><ele></ele><time>2014-7-4T16:49:37Z</time></trkpt>
<trkpt lat="46.92699702" lon="6.68177300"><ele></ele><time>2014-7-4T16:49:40Z</time></trkpt>
<trkpt lat="46.92698797" lon="6.68178298"><ele></ele><time>2014-7-4T16:49:43Z</time></trkpt>
<trkpt lat="46.92698504" lon="6.68178700"><ele></ele><time>2014-7-4T16:49:46Z</time></trkpt>
<trkpt lat="46.92698403" lon="6.68179203"><ele></ele><time>2014-7-4T16:49:49Z</time></trkpt>
<trkpt lat="46.92697699" lon="6.68178700"><ele></ele><time>2014-7-4T16:49:52Z</time></trkpt>
<trkpt lat="46.92697498" lon="6.68178700"><ele></ele><time>2014-7-4T16:49:55Z</time></trkpt>
<trkpt lat="46.92697498" lon="6.68178700"><ele></ele><time>2014-7-4T16:49:58Z</time></trkpt>
<trkpt lat="46.92697397" lon="6.68178599"><ele></ele><time>2014-7-4T16:50:1Z</time></trkpt>
<trkpt lat="46.92696299" lon="6.68179496"><ele></ele><time>2014-7-4T16:50:4Z</time></trkpt>
<trkpt lat="46.92694698" lon="6.68180401"><ele></ele><time>2014-7-4T16:50:7Z</time></trkpt>
<trkpt lat="46.92694497" lon="6.68180703"><ele></ele><time>2014-7-4T16:50:10Z</time></trkpt>
<trkpt lat="46.92692201" lon="6.68182497"><ele></ele><time>2014-7-4T16:50:13Z</time></trkpt>
<trkpt lat="46.92691899" lon="6.68181600"><ele></ele><time>2014-7-4T16:50:16Z</time></trkpt>
<trkpt lat="46.92679401" lon="6.68162196"><ele></ele><time>2014-7-4T16:50:19Z</time></trkpt>
<trkpt lat="46.92669704" lon="6.68146497"><ele></ele><time>2014-7-4T16:50:22Z</time></trkpt>
<trkpt lat="46.92659796" lon="6.68128501"><ele></ele><time>2014-7-4T16:50:25Z</time></trkpt>
<trkpt lat="46.92646896" lon="6.68102299"><ele></ele><time>2014-7-4T16:50:28Z</time></trkpt>
<trkpt lat="46.92626604" lon="6.68058001"><ele></ele><time>2014-7-4T16:50:31Z</time></trkpt>
<trkpt lat="46.92605096" lon="6.68014498"><ele></ele><time>2014-7-4T16:50:34Z</time></trkpt>
<trkpt lat="46.92585097" lon="6.67965699"><ele></ele><time>2014-7-4T16:50:37Z</time></trkpt>
<trkpt lat="46.92567000" lon="6.67921702"><ele></ele><time>2014-7-4T16:50:40Z</time></trkpt>
<trkpt lat="46.92542902" lon="6.67881704"><ele></ele><time>2014-7-4T16:50:43Z</time></trkpt>
<trkpt lat="46.92516499" lon="6.67845100"><ele></ele><time>2014-7-4T16:50:46Z</time></trkpt>
<trkpt lat="46.92490398" lon="6.67807600"><ele></ele><time>2014-7-4T16:50:49Z</time></trkpt>
<trkpt lat="46.92466803" lon="6.67763896"><ele></ele><time>2014-7-4T16:50:52Z</time></trkpt>
<trkpt lat="46.92443300" lon="6.67720696"><ele></ele><time>2014-7-4T16:50:55Z</time></trkpt>
<trkpt lat="46.92429403" lon="6.67669298"><ele></ele><time>2014-7-4T16:50:58Z</time></trkpt>
<trkpt lat="46.92415799" lon="6.67620398"><ele></ele><time>2014-7-4T16:51:1Z</time></trkpt>
<trkpt lat="46.92399203" lon="6.67571104"><ele></ele><time>2014-7-4T16:51:4Z</time></trkpt>
<trkpt lat="46.92373504" lon="6.67535498"><ele></ele><time>2014-7-4T16:51:7Z</time></trkpt>
<trkpt lat="46.92337302" lon="6.67525398"><ele></ele><time>2014-7-4T16:51:10Z</time></trkpt>
<trkpt lat="46.92305703" lon="6.67522104"><ele></ele><time>2014-7-4T16:51:13Z</time></trkpt>
<trkpt lat="46.92291697" lon="6.67570802"><ele></ele><time>2014-7-4T16:51:16Z</time></trkpt>
<trkpt lat="46.92290297" lon="6.67580701"><ele></ele><time>2014-7-4T16:51:19Z</time></trkpt>
<trkpt lat="46.92293096" lon="6.67586803"><ele></ele><time>2014-7-4T16:51:22Z</time></trkpt>
<trkpt lat="46.92293499" lon="6.67589896"><ele></ele><time>2014-7-4T16:51:25Z</time></trkpt>
<trkpt lat="46.92300699" lon="6.67642904"><ele></ele><time>2014-7-4T16:51:28Z</time></trkpt>
<trkpt lat="46.92304202" lon="6.67664596"><ele></ele><time>2014-7-4T16:51:31Z</time></trkpt>
<trkpt lat="46.92311604" lon="6.67699196"><ele></ele><time>2014-7-4T16:51:34Z</time></trkpt>
<trkpt lat="46.92317203" lon="6.67722498"><ele></ele><time>2014-7-4T16:51:37Z</time></trkpt>
<trkpt lat="46.92321897" lon="6.67739396"><ele></ele><time>2014-7-4T16:51:40Z</time></trkpt>
<trkpt lat="46.92329097" lon="6.67791800"><ele></ele><time>2014-7-4T16:51:43Z</time></trkpt>
<trkpt lat="46.92337001" lon="6.67824497"><ele></ele><time>2014-7-4T16:51:46Z</time></trkpt>
<trkpt lat="46.92344796" lon="6.67842502"><ele></ele><time>2014-7-4T16:51:49Z</time></trkpt>
<trkpt lat="46.92361199" lon="6.67881100"><ele></ele><time>2014-7-4T16:51:52Z</time></trkpt>
<trkpt lat="46.92364099" lon="6.67888904"><ele></ele><time>2014-7-4T16:51:55Z</time></trkpt>
<trkpt lat="46.92365902" lon="6.67891804"><ele></ele><time>2014-7-4T16:51:58Z</time></trkpt>
<trkpt lat="46.92381199" lon="6.67929204"><ele></ele><time>2014-7-4T16:52:1Z</time></trkpt>
<trkpt lat="46.92396303" lon="6.67960100"><ele></ele><time>2014-7-4T16:52:4Z</time></trkpt>
<trkpt lat="46.92397401" lon="6.67962103"><ele></ele><time>2014-7-4T16:52:7Z</time></trkpt>
<trkpt lat="46.92409404" lon="6.67996201"><ele></ele><time>2014-7-4T16:52:10Z</time></trkpt>
<trkpt lat="46.92408004" lon="6.68016401"><ele></ele><time>2014-7-4T16:52:13Z</time></trkpt>
<trkpt lat="46.92404500" lon="6.68037800"><ele></ele><time>2014-7-4T16:52:16Z</time></trkpt>
<trkpt lat="46.92400896" lon="6.68042201"><ele></ele><time>2014-7-4T16:52:19Z</time></trkpt>
<trkpt lat="46.92398398" lon="6.68045897"><ele></ele><time>2014-7-4T16:52:22Z</time></trkpt>
<trkpt lat="46.92400200" lon="6.68045201"><ele></ele><time>2014-7-4T16:52:25Z</time></trkpt>
<trkpt lat="46.92401097" lon="6.68044003"><ele></ele><time>2014-7-4T16:52:28Z</time></trkpt>
<trkpt lat="46.92396998" lon="6.68049904"><ele></ele><time>2014-7-4T16:52:31Z</time></trkpt>
<trkpt lat="46.92396504" lon="6.68051203"><ele></ele><time>2014-7-4T16:52:34Z</time></trkpt>
<trkpt lat="46.92408498" lon="6.68045403"><ele></ele><time>2014-7-4T16:52:37Z</time></trkpt>
<trkpt lat="46.92408599" lon="6.68044397"><ele></ele><time>2014-7-4T16:52:40Z</time></trkpt>
<trkpt lat="46.92409999" lon="6.68044103"><ele></ele><time>2014-7-4T16:52:43Z</time></trkpt>
<trkpt lat="46.92410703" lon="6.68050499"><ele></ele><time>2014-7-4T16:52:46Z</time></trkpt>
<trkpt lat="46.92410300" lon="6.68053399"><ele></ele><time>2014-7-4T16:52:49Z</time></trkpt>
<trkpt lat="46.92410300" lon="6.68054204"><ele></ele><time>2014-7-4T16:52:52Z</time></trkpt>
<trkpt lat="46.92410099" lon="6.68055302"><ele></ele><time>2014-7-4T16:52:55Z</time></trkpt>
<trkpt lat="46.92410300" lon="6.68056400"><ele></ele><time>2014-7-4T16:52:58Z</time></trkpt>
<trkpt lat="46.92410300" lon="6.68057498"><ele></ele><time>2014-7-4T16:53:1Z</time></trkpt>
<trkpt lat="46.92413301" lon="6.68069802"><ele></ele><time>2014-7-4T16:53:4Z</time></trkpt>
<trkpt lat="46.92431699" lon="6.68115802"><ele></ele><time>2014-7-4T16:53:7Z</time></trkpt>
<trkpt lat="46.92444800" lon="6.68144401"><ele></ele><time>2014-7-4T16:53:10Z</time></trkpt>
<trkpt lat="46.92472000" lon="6.68179697"><ele></ele><time>2014-7-4T16:53:13Z</time></trkpt>
<trkpt lat="46.92493298" lon="6.68222303"><ele></ele><time>2014-7-4T16:53:16Z</time></trkpt>
<trkpt lat="46.92505502" lon="6.68272200"><ele></ele><time>2014-7-4T16:53:19Z</time></trkpt>
<trkpt lat="46.92511101" lon="6.68292300"><ele></ele><time>2014-7-4T16:53:22Z</time></trkpt>
<trkpt lat="46.92531402" lon="6.68337604"><ele></ele><time>2014-7-4T16:53:25Z</time></trkpt>
<trkpt lat="46.92545098" lon="6.68364300"><ele></ele><time>2014-7-4T16:53:28Z</time></trkpt>
<trkpt lat="46.92553698" lon="6.68389002"><ele></ele><time>2014-7-4T16:53:31Z</time></trkpt>
<trkpt lat="46.92554704" lon="6.68394400"><ele></ele><time>2014-7-4T16:53:34Z</time></trkpt>
<trkpt lat="46.92558199" lon="6.68410300"><ele></ele><time>2014-7-4T16:53:37Z</time></trkpt>
<trkpt lat="46.92559800" lon="6.68463802"><ele></ele><time>2014-7-4T16:53:40Z</time></trkpt>
<trkpt lat="46.92555701" lon="6.68505502"><ele></ele><time>2014-7-4T16:53:43Z</time></trkpt>
<trkpt lat="46.92546003" lon="6.68528896"><ele></ele><time>2014-7-4T16:53:46Z</time></trkpt>
<trkpt lat="46.92551301" lon="6.68531402"><ele></ele><time>2014-7-4T16:53:49Z</time></trkpt>
<trkpt lat="46.92551401" lon="6.68531503"><ele></ele><time>2014-7-4T16:53:52Z</time></trkpt>
<trkpt lat="46.92537999" lon="6.68569800"><ele></ele><time>2014-7-4T16:53:55Z</time></trkpt>
<trkpt lat="46.92538401" lon="6.68574099"><ele></ele><time>2014-7-4T16:53:58Z</time></trkpt>
<trkpt lat="46.92538301" lon="6.68574804"><ele></ele><time>2014-7-4T16:54:1Z</time></trkpt>
<trkpt lat="46.92537798" lon="6.68580403"><ele></ele><time>2014-7-4T16:54:4Z</time></trkpt>
<trkpt lat="46.92533799" lon="6.68636000"><ele></ele><time>2014-7-4T16:54:7Z</time></trkpt>
<trkpt lat="46.92547898" lon="6.68686300"><ele></ele><time>2014-7-4T16:54:10Z</time></trkpt>
<trkpt lat="46.92557998" lon="6.68708503"><ele></ele><time>2014-7-4T16:54:13Z</time></trkpt>
<trkpt lat="46.92587201" lon="6.68736096"><ele></ele><time>2014-7-4T16:54:16Z</time></trkpt>
<trkpt lat="46.92600301" lon="6.68773899"><ele></ele><time>2014-7-4T16:54:19Z</time></trkpt>
<trkpt lat="46.92600796" lon="6.68793303"><ele></ele><time>2014-7-4T16:54:22Z</time></trkpt>
<trkpt lat="46.92600796" lon="6.68797402"><ele></ele><time>2014-7-4T16:54:25Z</time></trkpt>
<trkpt lat="46.92600603" lon="6.68801400"><ele></ele><time>2014-7-4T16:54:28Z</time></trkpt>
<trkpt lat="46.92602204" lon="6.68815297"><ele></ele><time>2014-7-4T16:54:31Z</time></trkpt>
<trkpt lat="46.92602498" lon="6.68821299"><ele></ele><time>2014-7-4T16:54:34Z</time></trkpt>
<trkpt lat="46.92601500" lon="6.68825598"><ele></ele><time>2014-7-4T16:54:37Z</time></trkpt>
<trkpt lat="46.92601701" lon="6.68825699"><ele></ele><time>2014-7-4T16:54:40Z</time></trkpt>
<trkpt lat="46.92602397" lon="6.68828800"><ele></ele><time>2014-7-4T16:54:43Z</time></trkpt>
<trkpt lat="46.92602699" lon="6.68830904"><ele></ele><time>2014-7-4T16:54:46Z</time></trkpt>
<trkpt lat="46.92606403" lon="6.68843100"><ele></ele><time>2014-7-4T16:54:49Z</time></trkpt>
<trkpt lat="46.92593303" lon="6.68862797"><ele></ele><time>2014-7-4T16:54:52Z</time></trkpt>
<trkpt lat="46.92604501" lon="6.68914204"><ele></ele><time>2014-7-4T16:54:55Z</time></trkpt>
<trkpt lat="46.92603897" lon="6.68925100"><ele></ele><time>2014-7-4T16:54:58Z</time></trkpt>
<trkpt lat="46.92591903" lon="6.68922602"><ele></ele><time>2014-7-4T16:55:1Z</time></trkpt>
<trkpt lat="46.92566003" lon="6.68879402"><ele></ele><time>2014-7-4T16:55:4Z</time></trkpt>
<trkpt lat="46.92558099" lon="6.68866603"><ele></ele><time>2014-7-4T16:55:7Z</time></trkpt>
<trkpt lat="46.92549096" lon="6.68851096"><ele></ele><time>2014-7-4T16:55:10Z</time></trkpt>
<trkpt lat="46.92537999" lon="6.68832103"><ele></ele><time>2014-7-4T16:55:13Z</time></trkpt>
<trkpt lat="46.92528804" lon="6.68813897"><ele></ele><time>2014-7-4T16:55:16Z</time></trkpt>
<trkpt lat="46.92513398" lon="6.68780001"><ele></ele><time>2014-7-4T16:55:19Z</time></trkpt>
<trkpt lat="46.92489300" lon="6.68739500"><ele></ele><time>2014-7-4T16:55:22Z</time></trkpt>
<trkpt lat="46.92470902" lon="6.68711102"><ele></ele><time>2014-7-4T16:55:25Z</time></trkpt>
<trkpt lat="46.92465101" lon="6.68701597"><ele></ele><time>2014-7-4T16:55:28Z</time></trkpt>
<trkpt lat="46.92442101" lon="6.68665102"><ele></ele><time>2014-7-4T16:55:31Z</time></trkpt>
<trkpt lat="46.92427902" lon="6.68644901"><ele></ele><time>2014-7-4T16:55:34Z</time></trkpt>
<trkpt lat="46.92418104" lon="6.68635103"><ele></ele><time>2014-7-4T16:55:37Z</time></trkpt>
<trkpt lat="46.92395104" lon="6.68627400"><ele></ele><time>2014-7-4T16:55:40Z</time></trkpt>
<trkpt lat="46.92359297" lon="6.68632597"><ele></ele><time>2014-7-4T16:55:43Z</time></trkpt>
<trkpt lat="46.92322399" lon="6.68640903"><ele></ele><time>2014-7-4T16:55:46Z</time></trkpt>
<trkpt lat="46.92285896" lon="6.68643401"><ele></ele><time>2014-7-4T16:55:49Z</time></trkpt>
<trkpt lat="46.92250097" lon="6.68649000"><ele></ele><time>2014-7-4T16:55:52Z</time></trkpt>
<trkpt lat="46.92230802" lon="6.68651297"><ele></ele><time>2014-7-4T16:55:55Z</time></trkpt>
<trkpt lat="46.92194802" lon="6.68658497"><ele></ele><time>2014-7-4T16:55:58Z</time></trkpt>
<trkpt lat="46.92162699" lon="6.68680399"><ele></ele><time>2014-7-4T16:56:1Z</time></trkpt>
<trkpt lat="46.92148802" lon="6.68713599"><ele></ele><time>2014-7-4T16:56:4Z</time></trkpt>
<trkpt lat="46.92129599" lon="6.68757898"><ele></ele><time>2014-7-4T16:56:7Z</time></trkpt>
<trkpt lat="46.92118501" lon="6.68807502"><ele></ele><time>2014-7-4T16:56:10Z</time></trkpt>
<trkpt lat="46.92117697" lon="6.68861398"><ele></ele><time>2014-7-4T16:56:13Z</time></trkpt>
<trkpt lat="46.92118300" lon="6.68893400"><ele></ele><time>2014-7-4T16:56:16Z</time></trkpt>
<trkpt lat="46.92120303" lon="6.68938503"><ele></ele><time>2014-7-4T16:56:19Z</time></trkpt>
<trkpt lat="46.92122499" lon="6.68965702"><ele></ele><time>2014-7-4T16:56:22Z</time></trkpt>
<trkpt lat="46.92127001" lon="6.68989699"><ele></ele><time>2014-7-4T16:56:25Z</time></trkpt>
<trkpt lat="46.92132600" lon="6.69024300"><ele></ele><time>2014-7-4T16:56:28Z</time></trkpt>
<trkpt lat="46.92141199" lon="6.69082202"><ele></ele><time>2014-7-4T16:56:31Z</time></trkpt>
<trkpt lat="46.92141501" lon="6.69088203"><ele></ele><time>2014-7-4T16:56:34Z</time></trkpt>
<trkpt lat="46.92138299" lon="6.69115604"><ele></ele><time>2014-7-4T16:56:37Z</time></trkpt>
<trkpt lat="46.92132298" lon="6.69138101"><ele></ele><time>2014-7-4T16:56:40Z</time></trkpt>
<trkpt lat="46.92110597" lon="6.69175602"><ele></ele><time>2014-7-4T16:56:43Z</time></trkpt>
<trkpt lat="46.92117102" lon="6.69193799"><ele></ele><time>2014-7-4T16:56:46Z</time></trkpt>
<trkpt lat="46.92146203" lon="6.69233001"><ele></ele><time>2014-7-4T16:56:49Z</time></trkpt>
<trkpt lat="46.92172799" lon="6.69270401"><ele></ele><time>2014-7-4T16:56:52Z</time></trkpt>
<trkpt lat="46.92196797" lon="6.69310500"><ele></ele><time>2014-7-4T16:56:55Z</time></trkpt>
<trkpt lat="46.92209898" lon="6.69360699"><ele></ele><time>2014-7-4T16:56:58Z</time></trkpt>
<trkpt lat="46.92210400" lon="6.69394696"><ele></ele><time>2014-7-4T16:57:1Z</time></trkpt>
<trkpt lat="46.92205799" lon="6.69424603"><ele></ele><time>2014-7-4T16:57:4Z</time></trkpt>
<trkpt lat="46.92195799" lon="6.69453998"><ele></ele><time>2014-7-4T16:57:7Z</time></trkpt>
<trkpt lat="46.92179999" lon="6.69502001"><ele></ele><time>2014-7-4T16:57:10Z</time></trkpt>
<trkpt lat="46.92173000" lon="6.69537800"><ele></ele><time>2014-7-4T16:57:13Z</time></trkpt>
<trkpt lat="46.92174300" lon="6.69590598"><ele></ele><time>2014-7-4T16:57:16Z</time></trkpt>
<trkpt lat="46.92188901" lon="6.69638501"><ele></ele><time>2014-7-4T16:57:19Z</time></trkpt>
<trkpt lat="46.92212999" lon="6.69680502"><ele></ele><time>2014-7-4T16:57:22Z</time></trkpt>
<trkpt lat="46.92241204" lon="6.69715304"><ele></ele><time>2014-7-4T16:57:25Z</time></trkpt>
<trkpt lat="46.92258303" lon="6.69760298"><ele></ele><time>2014-7-4T16:57:28Z</time></trkpt>
<trkpt lat="46.92263098" lon="6.69811796"><ele></ele><time>2014-7-4T16:57:31Z</time></trkpt>
<trkpt lat="46.92251497" lon="6.69860998"><ele></ele><time>2014-7-4T16:57:34Z</time></trkpt>
<trkpt lat="46.92248404" lon="6.69913201"><ele></ele><time>2014-7-4T16:57:37Z</time></trkpt>
<trkpt lat="46.92245797" lon="6.69967004"><ele></ele><time>2014-7-4T16:57:40Z</time></trkpt>
<trkpt lat="46.92242101" lon="6.70020296"><ele></ele><time>2014-7-4T16:57:43Z</time></trkpt>
<trkpt lat="46.92238597" lon="6.70073697"><ele></ele><time>2014-7-4T16:57:46Z</time></trkpt>
<trkpt lat="46.92236200" lon="6.70129102"><ele></ele><time>2014-7-4T16:57:49Z</time></trkpt>
<trkpt lat="46.92243400" lon="6.70183098"><ele></ele><time>2014-7-4T16:57:52Z</time></trkpt>
<trkpt lat="46.92261999" lon="6.70230196"><ele></ele><time>2014-7-4T16:57:55Z</time></trkpt>
<trkpt lat="46.92287103" lon="6.70272097"><ele></ele><time>2014-7-4T16:57:58Z</time></trkpt>
<trkpt lat="46.92316096" lon="6.70304904"><ele></ele><time>2014-7-4T16:58:1Z</time></trkpt>
<trkpt lat="46.92349900" lon="6.70329203"><ele></ele><time>2014-7-4T16:58:4Z</time></trkpt>
<trkpt lat="46.92380997" lon="6.70357098"><ele></ele><time>2014-7-4T16:58:7Z</time></trkpt>
<trkpt lat="46.92411700" lon="6.70388203"><ele></ele><time>2014-7-4T16:58:10Z</time></trkpt>
<trkpt lat="46.92442697" lon="6.70415402"><ele></ele><time>2014-7-4T16:58:13Z</time></trkpt>
<trkpt lat="46.92473802" lon="6.70444697"><ele></ele><time>2014-7-4T16:58:16Z</time></trkpt>
<trkpt lat="46.92503901" lon="6.70475199"><ele></ele><time>2014-7-4T16:58:19Z</time></trkpt>
<trkpt lat="46.92535400" lon="6.70504502"><ele></ele><time>2014-7-4T16:58:22Z</time></trkpt>
<trkpt lat="46.92563304" lon="6.70540402"><ele></ele><time>2014-7-4T16:58:25Z</time></trkpt>
<trkpt lat="46.92587502" lon="6.70582504"><ele></ele><time>2014-7-4T16:58:28Z</time></trkpt>
<trkpt lat="46.92609496" lon="6.70627498"><ele></ele><time>2014-7-4T16:58:31Z</time></trkpt>
<trkpt lat="46.92639504" lon="6.70656600"><ele></ele><time>2014-7-4T16:58:34Z</time></trkpt>
<trkpt lat="46.92674196" lon="6.70645603"><ele></ele><time>2014-7-4T16:58:37Z</time></trkpt>
<trkpt lat="46.92711697" lon="6.70637900"><ele></ele><time>2014-7-4T16:58:40Z</time></trkpt>
<trkpt lat="46.92748804" lon="6.70640197"><ele></ele><time>2014-7-4T16:58:43Z</time></trkpt>
<trkpt lat="46.92780403" lon="6.70671101"><ele></ele><time>2014-7-4T16:58:46Z</time></trkpt>
<trkpt lat="46.92811903" lon="6.70697998"><ele></ele><time>2014-7-4T16:58:49Z</time></trkpt>
<trkpt lat="46.92845799" lon="6.70718601"><ele></ele><time>2014-7-4T16:58:52Z</time></trkpt>
<trkpt lat="46.92876804" lon="6.70745096"><ele></ele><time>2014-7-4T16:58:55Z</time></trkpt>
<trkpt lat="46.92899100" lon="6.70787098"><ele></ele><time>2014-7-4T16:58:58Z</time></trkpt>
<trkpt lat="46.92902201" lon="6.70841304"><ele></ele><time>2014-7-4T16:59:1Z</time></trkpt>
<trkpt lat="46.92904900" lon="6.70895099"><ele></ele><time>2014-7-4T16:59:4Z</time></trkpt>
<trkpt lat="46.92922602" lon="6.70940797"><ele></ele><time>2014-7-4T16:59:7Z</time></trkpt>
<trkpt lat="46.92920004" lon="6.70991097"><ele></ele><time>2014-7-4T16:59:10Z</time></trkpt>
<trkpt lat="46.92906903" lon="6.71041396"><ele></ele><time>2014-7-4T16:59:13Z</time></trkpt>
<trkpt lat="46.92904598" lon="6.71095300"><ele></ele><time>2014-7-4T16:59:16Z</time></trkpt>
<trkpt lat="46.92913198" lon="6.71146899"><ele></ele><time>2014-7-4T16:59:19Z</time></trkpt>
<trkpt lat="46.92927900" lon="6.71197501"><ele></ele><time>2014-7-4T16:59:22Z</time></trkpt>
<trkpt lat="46.92943901" lon="6.71227902"><ele></ele><time>2014-7-4T16:59:25Z</time></trkpt>
<trkpt lat="46.92900801" lon="6.71235999"><ele></ele><time>2014-7-4T16:59:28Z</time></trkpt>
<trkpt lat="46.92868900" lon="6.71266601"><ele></ele><time>2014-7-4T16:59:31Z</time></trkpt>
<trkpt lat="46.92846101" lon="6.71301596"><ele></ele><time>2014-7-4T16:59:34Z</time></trkpt>
<trkpt lat="46.92830401" lon="6.71330304"><ele></ele><time>2014-7-4T16:59:37Z</time></trkpt>
<trkpt lat="46.92820997" lon="6.71352298"><ele></ele><time>2014-7-4T16:59:40Z</time></trkpt>
<trkpt lat="46.92810402" lon="6.71404802"><ele></ele><time>2014-7-4T16:59:43Z</time></trkpt>
<trkpt lat="46.92797100" lon="6.71454398"><ele></ele><time>2014-7-4T16:59:46Z</time></trkpt>
<trkpt lat="46.92783597" lon="6.71479099"><ele></ele><time>2014-7-4T16:59:49Z</time></trkpt>
<trkpt lat="46.92755300" lon="6.71505603"><ele></ele><time>2014-7-4T16:59:52Z</time></trkpt>
<trkpt lat="46.92735200" lon="6.71523398"><ele></ele><time>2014-7-4T16:59:55Z</time></trkpt>
<trkpt lat="46.92707598" lon="6.71555199"><ele></ele><time>2014-7-4T16:59:58Z</time></trkpt>
<trkpt lat="46.92676602" lon="6.71588198"><ele></ele><time>2014-7-4T17:0:1Z</time></trkpt>
<trkpt lat="46.92647198" lon="6.71622296"><ele></ele><time>2014-7-4T17:0:4Z</time></trkpt>
<trkpt lat="46.92616001" lon="6.71654298"><ele></ele><time>2014-7-4T17:0:7Z</time></trkpt>
<trkpt lat="46.92584803" lon="6.71680802"><ele></ele><time>2014-7-4T17:0:10Z</time></trkpt>
<trkpt lat="46.92563396" lon="6.71694900"><ele></ele><time>2014-7-4T17:0:13Z</time></trkpt>
<trkpt lat="46.92529298" lon="6.71712996"><ele></ele><time>2014-7-4T17:0:16Z</time></trkpt>
<trkpt lat="46.92506198" lon="6.71734496"><ele></ele><time>2014-7-4T17:0:19Z</time></trkpt>
<trkpt lat="46.92479501" lon="6.71772399"><ele></ele><time>2014-7-4T17:0:22Z</time></trkpt>
<trkpt lat="46.92443199" lon="6.71793404"><ele></ele><time>2014-7-4T17:0:25Z</time></trkpt>
<trkpt lat="46.92424399" lon="6.71812397"><ele></ele><time>2014-7-4T17:0:28Z</time></trkpt>
<trkpt lat="46.92404500" lon="6.71823202"><ele></ele><time>2014-7-4T17:0:31Z</time></trkpt>
<trkpt lat="46.92392900" lon="6.71835104"><ele></ele><time>2014-7-4T17:0:34Z</time></trkpt>
<trkpt lat="46.92389597" lon="6.71847702"><ele></ele><time>2014-7-4T17:0:37Z</time></trkpt>
<trkpt lat="46.92387602" lon="6.71870601"><ele></ele><time>2014-7-4T17:0:40Z</time></trkpt>
<trkpt lat="46.92391500" lon="6.71899402"><ele></ele><time>2014-7-4T17:0:43Z</time></trkpt>
<trkpt lat="46.92391198" lon="6.71961503"><ele></ele><time>2014-7-4T17:0:46Z</time></trkpt>
<trkpt lat="46.92389698" lon="6.71978300"><ele></ele><time>2014-7-4T17:0:49Z</time></trkpt>
<trkpt lat="46.92390301" lon="6.72019397"><ele></ele><time>2014-7-4T17:0:52Z</time></trkpt>
<trkpt lat="46.92406101" lon="6.72081800"><ele></ele><time>2014-7-4T17:0:55Z</time></trkpt>
<trkpt lat="46.92418397" lon="6.72118496"><ele></ele><time>2014-7-4T17:0:58Z</time></trkpt>
<trkpt lat="46.92422404" lon="6.72128697"><ele></ele><time>2014-7-4T17:1:1Z</time></trkpt>
<trkpt lat="46.92423603" lon="6.72132301"><ele></ele><time>2014-7-4T17:1:4Z</time></trkpt>
<trkpt lat="46.92433300" lon="6.72169399"><ele></ele><time>2014-7-4T17:1:7Z</time></trkpt>
<trkpt lat="46.92438204" lon="6.72180497"><ele></ele><time>2014-7-4T17:1:10Z</time></trkpt>
<trkpt lat="46.92460801" lon="6.72221996"><ele></ele><time>2014-7-4T17:1:13Z</time></trkpt>
<trkpt lat="46.92461397" lon="6.72222298"><ele></ele><time>2014-7-4T17:1:16Z</time></trkpt>
<trkpt lat="46.92456099" lon="6.72213203"><ele></ele><time>2014-7-4T17:1:19Z</time></trkpt>
<trkpt lat="46.92452403" lon="6.72210798"><ele></ele><time>2014-7-4T17:1:22Z</time></trkpt>
<trkpt lat="46.92439302" lon="6.72220001"><ele></ele><time>2014-7-4T17:1:25Z</time></trkpt>
<trkpt lat="46.92411700" lon="6.72229900"><ele></ele><time>2014-7-4T17:1:28Z</time></trkpt>
<trkpt lat="46.92389304" lon="6.72231501"><ele></ele><time>2014-7-4T17:1:31Z</time></trkpt>
<trkpt lat="46.92358500" lon="6.72198996"><ele></ele><time>2014-7-4T17:1:34Z</time></trkpt>
<trkpt lat="46.92334897" lon="6.72155502"><ele></ele><time>2014-7-4T17:1:37Z</time></trkpt>
<trkpt lat="46.92310296" lon="6.72114900"><ele></ele><time>2014-7-4T17:1:40Z</time></trkpt>
<trkpt lat="46.92281798" lon="6.72076000"><ele></ele><time>2014-7-4T17:1:43Z</time></trkpt>
<trkpt lat="46.92259099" lon="6.72052296"><ele></ele><time>2014-7-4T17:1:46Z</time></trkpt>
<trkpt lat="46.92247398" lon="6.72040603"><ele></ele><time>2014-7-4T17:1:49Z</time></trkpt>
<trkpt lat="46.92221599" lon="6.72004502"><ele></ele><time>2014-7-4T17:1:52Z</time></trkpt>
<trkpt lat="46.92205204" lon="6.71983598"><ele></ele><time>2014-7-4T17:1:55Z</time></trkpt>
<trkpt lat="46.92190502" lon="6.71969097"><ele></ele><time>2014-7-4T17:1:58Z</time></trkpt>
<trkpt lat="46.92160998" lon="6.71923500"><ele></ele><time>2014-7-4T17:2:1Z</time></trkpt>
<trkpt lat="46.92134704" lon="6.71886996"><ele></ele><time>2014-7-4T17:2:4Z</time></trkpt>
<trkpt lat="46.92127202" lon="6.71881800"><ele></ele><time>2014-7-4T17:2:7Z</time></trkpt>
<trkpt lat="46.92127503" lon="6.71880903"><ele></ele><time>2014-7-4T17:2:10Z</time></trkpt>
<trkpt lat="46.92125500" lon="6.71877097"><ele></ele><time>2014-7-4T17:2:13Z</time></trkpt>
<trkpt lat="46.92125299" lon="6.71877299"><ele></ele><time>2014-7-4T17:2:16Z</time></trkpt>
<trkpt lat="46.92114302" lon="6.71872596"><ele></ele><time>2014-7-4T17:2:19Z</time></trkpt>
<trkpt lat="46.92105702" lon="6.71868900"><ele></ele><time>2014-7-4T17:2:22Z</time></trkpt>
<trkpt lat="46.92068797" lon="6.71850803"><ele></ele><time>2014-7-4T17:2:25Z</time></trkpt>
<trkpt lat="46.92032604" lon="6.71826999"><ele></ele><time>2014-7-4T17:2:28Z</time></trkpt>
<trkpt lat="46.91992002" lon="6.71825297"><ele></ele><time>2014-7-4T17:2:31Z</time></trkpt>
<trkpt lat="46.91953604" lon="6.71819497"><ele></ele><time>2014-7-4T17:2:34Z</time></trkpt>
<trkpt lat="46.91914997" lon="6.71818198"><ele></ele><time>2014-7-4T17:2:37Z</time></trkpt>
<trkpt lat="46.91877597" lon="6.71811702"><ele></ele><time>2014-7-4T17:2:40Z</time></trkpt>
<trkpt lat="46.91841999" lon="6.71803202"><ele></ele><time>2014-7-4T17:2:43Z</time></trkpt>
<trkpt lat="46.91803903" lon="6.71787000"><ele></ele><time>2014-7-4T17:2:46Z</time></trkpt>
<trkpt lat="46.91771801" lon="6.71766699"><ele></ele><time>2014-7-4T17:2:49Z</time></trkpt>
<trkpt lat="46.91728600" lon="6.71747597"><ele></ele><time>2014-7-4T17:2:52Z</time></trkpt>
<trkpt lat="46.91715499" lon="6.71745803"><ele></ele><time>2014-7-4T17:2:55Z</time></trkpt>
<trkpt lat="46.91703497" lon="6.71741696"><ele></ele><time>2014-7-4T17:2:58Z</time></trkpt>
<trkpt lat="46.91695802" lon="6.71737002"><ele></ele><time>2014-7-4T17:3:1Z</time></trkpt>
<trkpt lat="46.91663004" lon="6.71713701"><ele></ele><time>2014-7-4T17:3:4Z</time></trkpt>
<trkpt lat="46.91637296" lon="6.71675999"><ele></ele><time>2014-7-4T17:3:7Z</time></trkpt>
<trkpt lat="46.91618697" lon="6.71657098"><ele></ele><time>2014-7-4T17:3:10Z</time></trkpt>
<trkpt lat="46.91584004" lon="6.71633402"><ele></ele><time>2014-7-4T17:3:13Z</time></trkpt>
<trkpt lat="46.91586100" lon="6.71635397"><ele></ele><time>2014-7-4T17:3:16Z</time></trkpt>
<trkpt lat="46.91587097" lon="6.71636201"><ele></ele><time>2014-7-4T17:3:19Z</time></trkpt>
<trkpt lat="46.91585496" lon="6.71634399"><ele></ele><time>2014-7-4T17:3:22Z</time></trkpt>
<trkpt lat="46.91584901" lon="6.71633796"><ele></ele><time>2014-7-4T17:3:25Z</time></trkpt>
<trkpt lat="46.91584398" lon="6.71633704"><ele></ele><time>2014-7-4T17:3:28Z</time></trkpt>
<trkpt lat="46.91582504" lon="6.71633704"><ele></ele><time>2014-7-4T17:3:31Z</time></trkpt>
<trkpt lat="46.91580500" lon="6.71634198"><ele></ele><time>2014-7-4T17:3:34Z</time></trkpt>
<trkpt lat="46.91545296" lon="6.71615498"><ele></ele><time>2014-7-4T17:3:37Z</time></trkpt>
<trkpt lat="46.91542698" lon="6.71584804"><ele></ele><time>2014-7-4T17:3:40Z</time></trkpt>
<trkpt lat="46.91547099" lon="6.71546197"><ele></ele><time>2014-7-4T17:3:43Z</time></trkpt>
<trkpt lat="46.91547903" lon="6.71528704"><ele></ele><time>2014-7-4T17:3:46Z</time></trkpt>
<trkpt lat="46.91547903" lon="6.71522300"><ele></ele><time>2014-7-4T17:3:49Z</time></trkpt>
<trkpt lat="46.91547702" lon="6.71464800"><ele></ele><time>2014-7-4T17:3:52Z</time></trkpt>
<trkpt lat="46.91543796" lon="6.71408800"><ele></ele><time>2014-7-4T17:3:55Z</time></trkpt>
<trkpt lat="46.91541399" lon="6.71362398"><ele></ele><time>2014-7-4T17:3:58Z</time></trkpt>
<trkpt lat="46.91542304" lon="6.71334604"><ele></ele><time>2014-7-4T17:4:1Z</time></trkpt>
<trkpt lat="46.91538499" lon="6.71295703"><ele></ele><time>2014-7-4T17:4:4Z</time></trkpt>
<trkpt lat="46.91523998" lon="6.71259401"><ele></ele><time>2014-7-4T17:4:7Z</time></trkpt>
<trkpt lat="46.91502901" lon="6.71238799"><ele></ele><time>2014-7-4T17:4:10Z</time></trkpt>
<trkpt lat="46.91466297" lon="6.71195699"><ele></ele><time>2014-7-4T17:4:13Z</time></trkpt>
<trkpt lat="46.91433398" lon="6.71166698"><ele></ele><time>2014-7-4T17:4:16Z</time></trkpt>
<trkpt lat="46.91412603" lon="6.71144200"><ele></ele><time>2014-7-4T17:4:19Z</time></trkpt>
<trkpt lat="46.91404900" lon="6.71129700"><ele></ele><time>2014-7-4T17:4:22Z</time></trkpt>
<trkpt lat="46.91396702" lon="6.71115702"><ele></ele><time>2014-7-4T17:4:25Z</time></trkpt>
<trkpt lat="46.91385596" lon="6.71092601"><ele></ele><time>2014-7-4T17:4:28Z</time></trkpt>
<trkpt lat="46.91362797" lon="6.71057196"><ele></ele><time>2014-7-4T17:4:31Z</time></trkpt>
<trkpt lat="46.91321097" lon="6.71026200"><ele></ele><time>2014-7-4T17:4:34Z</time></trkpt>
<trkpt lat="46.91315004" lon="6.71021699"><ele></ele><time>2014-7-4T17:4:37Z</time></trkpt>
<trkpt lat="46.91291098" lon="6.71009503"><ele></ele><time>2014-7-4T17:4:40Z</time></trkpt>
<trkpt lat="46.91280101" lon="6.70998397"><ele></ele><time>2014-7-4T17:4:43Z</time></trkpt>
<trkpt lat="46.91269800" lon="6.70985598"><ele></ele><time>2014-7-4T17:4:46Z</time></trkpt>
<trkpt lat="46.91241997" lon="6.70961198"><ele></ele><time>2014-7-4T17:4:49Z</time></trkpt>
<trkpt lat="46.91218402" lon="6.70959497"><ele></ele><time>2014-7-4T17:4:52Z</time></trkpt>
<trkpt lat="46.91166904" lon="6.70954200"><ele></ele><time>2014-7-4T17:4:55Z</time></trkpt>
<trkpt lat="46.91156200" lon="6.70947100"><ele></ele><time>2014-7-4T17:4:58Z</time></trkpt>
<trkpt lat="46.91145396" lon="6.70924804"><ele></ele><time>2014-7-4T17:5:1Z</time></trkpt>
<trkpt lat="46.91139503" lon="6.70909599"><ele></ele><time>2014-7-4T17:5:4Z</time></trkpt>
<trkpt lat="46.91132203" lon="6.70888703"><ele></ele><time>2014-7-4T17:5:7Z</time></trkpt>
<trkpt lat="46.91111499" lon="6.70831698"><ele></ele><time>2014-7-4T17:5:10Z</time></trkpt>
<trkpt lat="46.91108599" lon="6.70825303"><ele></ele><time>2014-7-4T17:5:13Z</time></trkpt>
<trkpt lat="46.91096798" lon="6.70803401"><ele></ele><time>2014-7-4T17:5:16Z</time></trkpt>
<trkpt lat="46.91067402" lon="6.70772899"><ele></ele><time>2014-7-4T17:5:19Z</time></trkpt>
<trkpt lat="46.91034101" lon="6.70723999"><ele></ele><time>2014-7-4T17:5:22Z</time></trkpt>
<trkpt lat="46.91015099" lon="6.70688401"><ele></ele><time>2014-7-4T17:5:25Z</time></trkpt>
<trkpt lat="46.90996299" lon="6.70665099"><ele></ele><time>2014-7-4T17:5:28Z</time></trkpt>
<trkpt lat="46.90974598" lon="6.70627004"><ele></ele><time>2014-7-4T17:5:31Z</time></trkpt>
<trkpt lat="46.90936100" lon="6.70588103"><ele></ele><time>2014-7-4T17:5:34Z</time></trkpt>
<trkpt lat="46.90921901" lon="6.70571499"><ele></ele><time>2014-7-4T17:5:37Z</time></trkpt>
<trkpt lat="46.90899102" lon="6.70532799"><ele></ele><time>2014-7-4T17:5:40Z</time></trkpt>
<trkpt lat="46.90861702" lon="6.70501300"><ele></ele><time>2014-7-4T17:5:43Z</time></trkpt>
<trkpt lat="46.90827202" lon="6.70470497"><ele></ele><time>2014-7-4T17:5:46Z</time></trkpt>
<trkpt lat="46.90790397" lon="6.70438402"><ele></ele><time>2014-7-4T17:5:49Z</time></trkpt>
<trkpt lat="46.90759703" lon="6.70409502"><ele></ele><time>2014-7-4T17:5:52Z</time></trkpt>
<trkpt lat="46.90727801" lon="6.70381196"><ele></ele><time>2014-7-4T17:5:55Z</time></trkpt>
<trkpt lat="46.90694198" lon="6.70351096"><ele></ele><time>2014-7-4T17:5:58Z</time></trkpt>
<trkpt lat="46.90662296" lon="6.70312598"><ele></ele><time>2014-7-4T17:6:1Z</time></trkpt>
<trkpt lat="46.90633496" lon="6.70269398"><ele></ele><time>2014-7-4T17:6:4Z</time></trkpt>
<trkpt lat="46.90601402" lon="6.70228402"><ele></ele><time>2014-7-4T17:6:7Z</time></trkpt>
<trkpt lat="46.90594302" lon="6.70220297"><ele></ele><time>2014-7-4T17:6:10Z</time></trkpt>
<trkpt lat="46.90565100" lon="6.70187800"><ele></ele><time>2014-7-4T17:6:13Z</time></trkpt>
<trkpt lat="46.90534598" lon="6.70152797"><ele></ele><time>2014-7-4T17:6:16Z</time></trkpt>
<trkpt lat="46.90527004" lon="6.70142898"><ele></ele><time>2014-7-4T17:6:19Z</time></trkpt>
<trkpt lat="46.90509201" lon="6.70107099"><ele></ele><time>2014-7-4T17:6:22Z</time></trkpt>
<trkpt lat="46.90504801" lon="6.70093797"><ele></ele><time>2014-7-4T17:6:25Z</time></trkpt>
<trkpt lat="46.90486897" lon="6.70026298"><ele></ele><time>2014-7-4T17:6:28Z</time></trkpt>
<trkpt lat="46.90470099" lon="6.69976098"><ele></ele><time>2014-7-4T17:6:31Z</time></trkpt>
<trkpt lat="46.90458398" lon="6.69953199"><ele></ele><time>2014-7-4T17:6:34Z</time></trkpt>
<trkpt lat="46.90429296" lon="6.69914701"><ele></ele><time>2014-7-4T17:6:37Z</time></trkpt>
<trkpt lat="46.90395601" lon="6.69874703"><ele></ele><time>2014-7-4T17:6:40Z</time></trkpt>
<trkpt lat="46.90360397" lon="6.69840798"><ele></ele><time>2014-7-4T17:6:43Z</time></trkpt>
<trkpt lat="46.90324397" lon="6.69821402"><ele></ele><time>2014-7-4T17:6:46Z</time></trkpt>
<trkpt lat="46.90281398" lon="6.69804697"><ele></ele><time>2014-7-4T17:6:49Z</time></trkpt>
<trkpt lat="46.90246596" lon="6.69782904"><ele></ele><time>2014-7-4T17:6:52Z</time></trkpt>
<trkpt lat="46.90213898" lon="6.69750198"><ele></ele><time>2014-7-4T17:6:55Z</time></trkpt>
<trkpt lat="46.90177596" lon="6.69719302"><ele></ele><time>2014-7-4T17:6:58Z</time></trkpt>
<trkpt lat="46.90133801" lon="6.69694399"><ele></ele><time>2014-7-4T17:7:1Z</time></trkpt>
<trkpt lat="46.89865898" lon="6.69355603"><ele></ele><time>2014-7-4T17:7:4Z</time></trkpt>
<trkpt lat="46.89842203" lon="6.69311900"><ele></ele><time>2014-7-4T17:7:7Z</time></trkpt>
<trkpt lat="46.89813796" lon="6.69269697"><ele></ele><time>2014-7-4T17:7:10Z</time></trkpt>
<trkpt lat="46.89771602" lon="6.69246797"><ele></ele><time>2014-7-4T17:7:13Z</time></trkpt>
<trkpt lat="46.89764502" lon="6.69246102"><ele></ele><time>2014-7-4T17:7:16Z</time></trkpt>
<trkpt lat="46.89752600" lon="6.69246303"><ele></ele><time>2014-7-4T17:7:19Z</time></trkpt>
<trkpt lat="46.89715502" lon="6.69254702"><ele></ele><time>2014-7-4T17:7:22Z</time></trkpt>
<trkpt lat="46.89703700" lon="6.69230101"><ele></ele><time>2014-7-4T17:7:25Z</time></trkpt>
<trkpt lat="46.89703499" lon="6.69227402"><ele></ele><time>2014-7-4T17:7:28Z</time></trkpt>
<trkpt lat="46.89704203" lon="6.69223404"><ele></ele><time>2014-7-4T17:7:31Z</time></trkpt>
<trkpt lat="46.89704203" lon="6.69223303"><ele></ele><time>2014-7-4T17:7:34Z</time></trkpt>
<trkpt lat="46.89703097" lon="6.69223303"><ele></ele><time>2014-7-4T17:7:37Z</time></trkpt>
<trkpt lat="46.89698403" lon="6.69218198"><ele></ele><time>2014-7-4T17:7:40Z</time></trkpt>
<trkpt lat="46.89698604" lon="6.69218802"><ele></ele><time>2014-7-4T17:7:43Z</time></trkpt>
<trkpt lat="46.89699400" lon="6.69219196"><ele></ele><time>2014-7-4T17:7:46Z</time></trkpt>
<trkpt lat="46.89704999" lon="6.69219699"><ele></ele><time>2014-7-4T17:7:49Z</time></trkpt>
<trkpt lat="46.89705200" lon="6.69220696"><ele></ele><time>2014-7-4T17:7:52Z</time></trkpt>
<trkpt lat="46.89704496" lon="6.69220998"><ele></ele><time>2014-7-4T17:7:55Z</time></trkpt>
<trkpt lat="46.89704798" lon="6.69221199"><ele></ele><time>2014-7-4T17:7:58Z</time></trkpt>
<trkpt lat="46.89706198" lon="6.69221501"><ele></ele><time>2014-7-4T17:8:1Z</time></trkpt>
<trkpt lat="46.89712099" lon="6.69211099"><ele></ele><time>2014-7-4T17:8:4Z</time></trkpt>
<trkpt lat="46.89712501" lon="6.69207201"><ele></ele><time>2014-7-4T17:8:7Z</time></trkpt>
<trkpt lat="46.89717698" lon="6.69187697"><ele></ele><time>2014-7-4T17:8:10Z</time></trkpt>
<trkpt lat="46.89724001" lon="6.69165501"><ele></ele><time>2014-7-4T17:8:13Z</time></trkpt>
<trkpt lat="46.89729902" lon="6.69141504"><ele></ele><time>2014-7-4T17:8:16Z</time></trkpt>
<trkpt lat="46.89731402" lon="6.69125000"><ele></ele><time>2014-7-4T17:8:19Z</time></trkpt>
<trkpt lat="46.89733900" lon="6.69113399"><ele></ele><time>2014-7-4T17:8:22Z</time></trkpt>
<trkpt lat="46.89736499" lon="6.69106401"><ele></ele><time>2014-7-4T17:8:25Z</time></trkpt>
<trkpt lat="46.89739902" lon="6.69100299"><ele></ele><time>2014-7-4T17:8:28Z</time></trkpt>
<trkpt lat="46.89742701" lon="6.69049999"><ele></ele><time>2014-7-4T17:8:31Z</time></trkpt>
<trkpt lat="46.89741603" lon="6.69043704"><ele></ele><time>2014-7-4T17:8:34Z</time></trkpt>
<trkpt lat="46.89741402" lon="6.69043704"><ele></ele><time>2014-7-4T17:8:37Z</time></trkpt>
<trkpt lat="46.89741301" lon="6.69043704"><ele></ele><time>2014-7-4T17:8:40Z</time></trkpt>
<trkpt lat="46.89741100" lon="6.69043704"><ele></ele><time>2014-7-4T17:8:43Z</time></trkpt>
<trkpt lat="46.89740203" lon="6.69040100"><ele></ele><time>2014-7-4T17:8:46Z</time></trkpt>
<trkpt lat="46.89737898" lon="6.69022297"><ele></ele><time>2014-7-4T17:8:49Z</time></trkpt>
<trkpt lat="46.89730204" lon="6.68967303"><ele></ele><time>2014-7-4T17:8:52Z</time></trkpt>
<trkpt lat="46.89729600" lon="6.68937103"><ele></ele><time>2014-7-4T17:8:55Z</time></trkpt>
<trkpt lat="46.89720900" lon="6.68883601"><ele></ele><time>2014-7-4T17:8:58Z</time></trkpt>
<trkpt lat="46.89717798" lon="6.68850300"><ele></ele><time>2014-7-4T17:9:1Z</time></trkpt>
<trkpt lat="46.89712903" lon="6.68822397"><ele></ele><time>2014-7-4T17:9:4Z</time></trkpt>
<trkpt lat="46.89708796" lon="6.68807602"><ele></ele><time>2014-7-4T17:9:7Z</time></trkpt>
<trkpt lat="46.89708201" lon="6.68806798"><ele></ele><time>2014-7-4T17:9:10Z</time></trkpt>
<trkpt lat="46.89705502" lon="6.68803797"><ele></ele><time>2014-7-4T17:9:13Z</time></trkpt>
<trkpt lat="46.89701898" lon="6.68803697"><ele></ele><time>2014-7-4T17:9:16Z</time></trkpt>
<trkpt lat="46.89700004" lon="6.68804199"><ele></ele><time>2014-7-4T17:9:19Z</time></trkpt>
<trkpt lat="46.89701403" lon="6.68802003"><ele></ele><time>2014-7-4T17:9:22Z</time></trkpt>
<trkpt lat="46.89703901" lon="6.68799003"><ele></ele><time>2014-7-4T17:9:25Z</time></trkpt>
<trkpt lat="46.89698503" lon="6.68793303"><ele></ele><time>2014-7-4T17:9:28Z</time></trkpt>
<trkpt lat="46.89687699" lon="6.68790403"><ele></ele><time>2014-7-4T17:9:31Z</time></trkpt>
<trkpt lat="46.89675998" lon="6.68783597"><ele></ele><time>2014-7-4T17:9:34Z</time></trkpt>
<trkpt lat="46.89670801" lon="6.68778802"><ele></ele><time>2014-7-4T17:9:37Z</time></trkpt>
<trkpt lat="46.89642001" lon="6.68760203"><ele></ele><time>2014-7-4T17:9:40Z</time></trkpt>
<trkpt lat="46.89637399" lon="6.68755501"><ele></ele><time>2014-7-4T17:9:43Z</time></trkpt>
<trkpt lat="46.89612798" lon="6.68719601"><ele></ele><time>2014-7-4T17:9:46Z</time></trkpt>
<trkpt lat="46.89607501" lon="6.68709702"><ele></ele><time>2014-7-4T17:9:49Z</time></trkpt>
<trkpt lat="46.89587996" lon="6.68695503"><ele></ele><time>2014-7-4T17:9:52Z</time></trkpt>
<trkpt lat="46.89566698" lon="6.68679502"><ele></ele><time>2014-7-4T17:9:55Z</time></trkpt>
<trkpt lat="46.89554402" lon="6.68671397"><ele></ele><time>2014-7-4T17:9:58Z</time></trkpt>
<trkpt lat="46.89530597" lon="6.68672704"><ele></ele><time>2014-7-4T17:10:1Z</time></trkpt>
<trkpt lat="46.89516700" lon="6.68674003"><ele></ele><time>2014-7-4T17:10:4Z</time></trkpt>
<trkpt lat="46.89503498" lon="6.68672302"><ele></ele><time>2014-7-4T17:10:7Z</time></trkpt>
<trkpt lat="46.89490800" lon="6.68670801"><ele></ele><time>2014-7-4T17:10:10Z</time></trkpt>
<trkpt lat="46.89479199" lon="6.68667801"><ele></ele><time>2014-7-4T17:10:13Z</time></trkpt>
<trkpt lat="46.89462603" lon="6.68658899"><ele></ele><time>2014-7-4T17:10:16Z</time></trkpt>
<trkpt lat="46.89452796" lon="6.68651599"><ele></ele><time>2014-7-4T17:10:19Z</time></trkpt>
<trkpt lat="46.89420903" lon="6.68621600"><ele></ele><time>2014-7-4T17:10:22Z</time></trkpt>
<trkpt lat="46.89408297" lon="6.68601802"><ele></ele><time>2014-7-4T17:10:25Z</time></trkpt>
<trkpt lat="46.89380997" lon="6.68557403"><ele></ele><time>2014-7-4T17:10:28Z</time></trkpt>
<trkpt lat="46.89369899" lon="6.68534503"><ele></ele><time>2014-7-4T17:10:31Z</time></trkpt>
<trkpt lat="46.89353001" lon="6.68484899"><ele></ele><time>2014-7-4T17:10:34Z</time></trkpt>
<trkpt lat="46.89348299" lon="6.68466400"><ele></ele><time>2014-7-4T17:10:37Z</time></trkpt>
<trkpt lat="46.89343203" lon="6.68436703"><ele></ele><time>2014-7-4T17:10:40Z</time></trkpt>
<trkpt lat="46.89336699" lon="6.68400301"><ele></ele><time>2014-7-4T17:10:43Z</time></trkpt>
<trkpt lat="46.89334402" lon="6.68365298"><ele></ele><time>2014-7-4T17:10:46Z</time></trkpt>
<trkpt lat="46.89334896" lon="6.68338099"><ele></ele><time>2014-7-4T17:10:49Z</time></trkpt>
<trkpt lat="46.89333597" lon="6.68318904"><ele></ele><time>2014-7-4T17:10:52Z</time></trkpt>
<trkpt lat="46.89319398" lon="6.68255000"><ele></ele><time>2014-7-4T17:10:55Z</time></trkpt>
<trkpt lat="46.89305400" lon="6.68211197"><ele></ele><time>2014-7-4T17:10:58Z</time></trkpt>
<trkpt lat="46.89295703" lon="6.68175699"><ele></ele><time>2014-7-4T17:11:1Z</time></trkpt>
<trkpt lat="46.89270800" lon="6.68121502"><ele></ele><time>2014-7-4T17:11:4Z</time></trkpt>
<trkpt lat="46.89244003" lon="6.68074002"><ele></ele><time>2014-7-4T17:11:7Z</time></trkpt>
<trkpt lat="46.89239301" lon="6.68065997"><ele></ele><time>2014-7-4T17:11:10Z</time></trkpt>
<trkpt lat="46.89218396" lon="6.68037498"><ele></ele><time>2014-7-4T17:11:13Z</time></trkpt>
<trkpt lat="46.89212898" lon="6.68030499"><ele></ele><time>2014-7-4T17:11:16Z</time></trkpt>
<trkpt lat="46.89201800" lon="6.68014800"><ele></ele><time>2014-7-4T17:11:19Z</time></trkpt>
<trkpt lat="46.89171600" lon="6.67984298"><ele></ele><time>2014-7-4T17:11:22Z</time></trkpt>
<trkpt lat="46.89159798" lon="6.67979202"><ele></ele><time>2014-7-4T17:11:25Z</time></trkpt>
<trkpt lat="46.89143504" lon="6.67974802"><ele></ele><time>2014-7-4T17:11:28Z</time></trkpt>
<trkpt lat="46.89122298" lon="6.67959102"><ele></ele><time>2014-7-4T17:11:31Z</time></trkpt>
<trkpt lat="46.89113103" lon="6.67946597"><ele></ele><time>2014-7-4T17:11:34Z</time></trkpt>
<trkpt lat="46.89103598" lon="6.67936396"><ele></ele><time>2014-7-4T17:11:37Z</time></trkpt>
<trkpt lat="46.89088603" lon="6.67929003"><ele></ele><time>2014-7-4T17:11:40Z</time></trkpt>
<trkpt lat="46.89085501" lon="6.67914703"><ele></ele><time>2014-7-4T17:11:43Z</time></trkpt>
<trkpt lat="46.89083297" lon="6.67907403"><ele></ele><time>2014-7-4T17:11:46Z</time></trkpt>
<trkpt lat="46.89081503" lon="6.67885199"><ele></ele><time>2014-7-4T17:11:49Z</time></trkpt>
<trkpt lat="46.89076600" lon="6.67863800"><ele></ele><time>2014-7-4T17:11:52Z</time></trkpt>
<trkpt lat="46.89071897" lon="6.67844304"><ele></ele><time>2014-7-4T17:11:55Z</time></trkpt>
<trkpt lat="46.89067799" lon="6.67825696"><ele></ele><time>2014-7-4T17:11:58Z</time></trkpt>
<trkpt lat="46.89064002" lon="6.67796703"><ele></ele><time>2014-7-4T17:12:1Z</time></trkpt>
<trkpt lat="46.89056098" lon="6.67758197"><ele></ele><time>2014-7-4T17:12:4Z</time></trkpt>
<trkpt lat="46.89046701" lon="6.67713496"><ele></ele><time>2014-7-4T17:12:7Z</time></trkpt>
<trkpt lat="46.89047196" lon="6.67660397"><ele></ele><time>2014-7-4T17:12:10Z</time></trkpt>
<trkpt lat="46.89046500" lon="6.67605897"><ele></ele><time>2014-7-4T17:12:13Z</time></trkpt>
<trkpt lat="46.89044799" lon="6.67569897"><ele></ele><time>2014-7-4T17:12:16Z</time></trkpt>
<trkpt lat="46.89042804" lon="6.67543201"><ele></ele><time>2014-7-4T17:12:19Z</time></trkpt>
<trkpt lat="46.89037900" lon="6.67507201"><ele></ele><time>2014-7-4T17:12:22Z</time></trkpt>
<trkpt lat="46.89032997" lon="6.67493002"><ele></ele><time>2014-7-4T17:12:25Z</time></trkpt>
<trkpt lat="46.89031497" lon="6.67489599"><ele></ele><time>2014-7-4T17:12:28Z</time></trkpt>
<trkpt lat="46.89028999" lon="6.67483597"><ele></ele><time>2014-7-4T17:12:31Z</time></trkpt>
<trkpt lat="46.89023802" lon="6.67468904"><ele></ele><time>2014-7-4T17:12:34Z</time></trkpt>
<trkpt lat="46.89003501" lon="6.67424203"><ele></ele><time>2014-7-4T17:12:37Z</time></trkpt>
<trkpt lat="46.88985698" lon="6.67378002"><ele></ele><time>2014-7-4T17:12:40Z</time></trkpt>
<trkpt lat="46.88964902" lon="6.67329999"><ele></ele><time>2014-7-4T17:12:43Z</time></trkpt>
<trkpt lat="46.88937703" lon="6.67293697"><ele></ele><time>2014-7-4T17:12:46Z</time></trkpt>
<trkpt lat="46.88922096" lon="6.67257998"><ele></ele><time>2014-7-4T17:12:49Z</time></trkpt>
<trkpt lat="46.88917100" lon="6.67211998"><ele></ele><time>2014-7-4T17:12:52Z</time></trkpt>
<trkpt lat="46.88936203" lon="6.67181103"><ele></ele><time>2014-7-4T17:12:55Z</time></trkpt>
<trkpt lat="46.88944702" lon="6.67161103"><ele></ele><time>2014-7-4T17:12:58Z</time></trkpt>
<trkpt lat="46.88946999" lon="6.67147298"><ele></ele><time>2014-7-4T17:13:1Z</time></trkpt>
<trkpt lat="46.88949002" lon="6.67094702"><ele></ele><time>2014-7-4T17:13:4Z</time></trkpt>
<trkpt lat="46.88948197" lon="6.67040999"><ele></ele><time>2014-7-4T17:13:7Z</time></trkpt>
<trkpt lat="46.88953503" lon="6.67000799"><ele></ele><time>2014-7-4T17:13:10Z</time></trkpt>
<trkpt lat="46.88961499" lon="6.66964900"><ele></ele><time>2014-7-4T17:13:13Z</time></trkpt>
<trkpt lat="46.88970401" lon="6.66909504"><ele></ele><time>2014-7-4T17:13:16Z</time></trkpt>
<trkpt lat="46.88963402" lon="6.66857201"><ele></ele><time>2014-7-4T17:13:19Z</time></trkpt>
<trkpt lat="46.88956697" lon="6.66804403"><ele></ele><time>2014-7-4T17:13:22Z</time></trkpt>
<trkpt lat="46.88956403" lon="6.66751103"><ele></ele><time>2014-7-4T17:13:25Z</time></trkpt>
<trkpt lat="46.88937804" lon="6.66704298"><ele></ele><time>2014-7-4T17:13:28Z</time></trkpt>
<trkpt lat="46.88931903" lon="6.66681600"><ele></ele><time>2014-7-4T17:13:31Z</time></trkpt>
<trkpt lat="46.88926103" lon="6.66675800"><ele></ele><time>2014-7-4T17:13:34Z</time></trkpt>
<trkpt lat="46.88922004" lon="6.66664098"><ele></ele><time>2014-7-4T17:13:37Z</time></trkpt>
<trkpt lat="46.88917897" lon="6.66655096"><ele></ele><time>2014-7-4T17:13:40Z</time></trkpt>
<trkpt lat="46.88912499" lon="6.66644803"><ele></ele><time>2014-7-4T17:13:43Z</time></trkpt>
<trkpt lat="46.88905600" lon="6.66629397"><ele></ele><time>2014-7-4T17:13:46Z</time></trkpt>
<trkpt lat="46.88902298" lon="6.66623002"><ele></ele><time>2014-7-4T17:13:49Z</time></trkpt>
<trkpt lat="46.88887504" lon="6.66596599"><ele></ele><time>2014-7-4T17:13:52Z</time></trkpt>
<trkpt lat="46.88880597" lon="6.66582501"><ele></ele><time>2014-7-4T17:13:55Z</time></trkpt>
<trkpt lat="46.88858201" lon="6.66537297"><ele></ele><time>2014-7-4T17:13:58Z</time></trkpt>
<trkpt lat="46.88831999" lon="6.66495999"><ele></ele><time>2014-7-4T17:14:1Z</time></trkpt>
<trkpt lat="46.88800802" lon="6.66464400"><ele></ele><time>2014-7-4T17:14:4Z</time></trkpt>
<trkpt lat="46.88771800" lon="6.66432003"><ele></ele><time>2014-7-4T17:14:7Z</time></trkpt>
<trkpt lat="46.88745900" lon="6.66390002"><ele></ele><time>2014-7-4T17:14:10Z</time></trkpt>
<trkpt lat="46.88741198" lon="6.66381000"><ele></ele><time>2014-7-4T17:14:13Z</time></trkpt>
<trkpt lat="46.88733403" lon="6.66364898"><ele></ele><time>2014-7-4T17:14:16Z</time></trkpt>
<trkpt lat="46.88727099" lon="6.66355602"><ele></ele><time>2014-7-4T17:14:19Z</time></trkpt>
<trkpt lat="46.88723998" lon="6.66352199"><ele></ele><time>2014-7-4T17:14:22Z</time></trkpt>
<trkpt lat="46.88692600" lon="6.66304104"><ele></ele><time>2014-7-4T17:14:25Z</time></trkpt>
<trkpt lat="46.88688199" lon="6.66296703"><ele></ele><time>2014-7-4T17:14:28Z</time></trkpt>
<trkpt lat="46.88664797" lon="6.66258196"><ele></ele><time>2014-7-4T17:14:31Z</time></trkpt>
<trkpt lat="46.88653599" lon="6.66224903"><ele></ele><time>2014-7-4T17:14:34Z</time></trkpt>
<trkpt lat="46.88646801" lon="6.66194100"><ele></ele><time>2014-7-4T17:14:37Z</time></trkpt>
<trkpt lat="46.88639601" lon="6.66147497"><ele></ele><time>2014-7-4T17:14:40Z</time></trkpt>
<trkpt lat="46.88638000" lon="6.66140498"><ele></ele><time>2014-7-4T17:14:43Z</time></trkpt>
<trkpt lat="46.88620800" lon="6.66125100"><ele></ele><time>2014-7-4T17:14:46Z</time></trkpt>
<trkpt lat="46.88598001" lon="6.66122502"><ele></ele><time>2014-7-4T17:14:49Z</time></trkpt>
<trkpt lat="46.88582101" lon="6.66114204"><ele></ele><time>2014-7-4T17:14:52Z</time></trkpt>
<trkpt lat="46.88563200" lon="6.66101002"><ele></ele><time>2014-7-4T17:14:55Z</time></trkpt>
<trkpt lat="46.88540099" lon="6.66074800"><ele></ele><time>2014-7-4T17:14:58Z</time></trkpt>
<trkpt lat="46.88515800" lon="6.66031198"><ele></ele><time>2014-7-4T17:15:1Z</time></trkpt>
<trkpt lat="46.88492096" lon="6.65990897"><ele></ele><time>2014-7-4T17:15:4Z</time></trkpt>
<trkpt lat="46.88461502" lon="6.65979800"><ele></ele><time>2014-7-4T17:15:7Z</time></trkpt>
<trkpt lat="46.88438402" lon="6.65980797"><ele></ele><time>2014-7-4T17:15:10Z</time></trkpt>
<trkpt lat="46.88423297" lon="6.65980403"><ele></ele><time>2014-7-4T17:15:13Z</time></trkpt>
<trkpt lat="46.88413398" lon="6.65977696"><ele></ele><time>2014-7-4T17:15:16Z</time></trkpt>
<trkpt lat="46.88389099" lon="6.65972902"><ele></ele><time>2014-7-4T17:15:19Z</time></trkpt>
<trkpt lat="46.88351800" lon="6.65966498"><ele></ele><time>2014-7-4T17:15:22Z</time></trkpt>
<trkpt lat="46.88326503" lon="6.65973103"><ele></ele><time>2014-7-4T17:15:25Z</time></trkpt>
<trkpt lat="46.88295398" lon="6.66001501"><ele></ele><time>2014-7-4T17:15:28Z</time></trkpt>
<trkpt lat="46.88280302" lon="6.66013897"><ele></ele><time>2014-7-4T17:15:31Z</time></trkpt>
<trkpt lat="46.88259800" lon="6.66043703"><ele></ele><time>2014-7-4T17:15:34Z</time></trkpt>
<trkpt lat="46.88255198" lon="6.66049697"><ele></ele><time>2014-7-4T17:15:37Z</time></trkpt>
<trkpt lat="46.88235199" lon="6.66073099"><ele></ele><time>2014-7-4T17:15:40Z</time></trkpt>
<trkpt lat="46.88231301" lon="6.66077399"><ele></ele><time>2014-7-4T17:15:43Z</time></trkpt>
<trkpt lat="46.88208897" lon="6.66093199"><ele></ele><time>2014-7-4T17:15:46Z</time></trkpt>
<trkpt lat="46.88199098" lon="6.66093903"><ele></ele><time>2014-7-4T17:15:49Z</time></trkpt>
<trkpt lat="46.88191001" lon="6.66092302"><ele></ele><time>2014-7-4T17:15:52Z</time></trkpt>
<trkpt lat="46.88180096" lon="6.66083400"><ele></ele><time>2014-7-4T17:15:55Z</time></trkpt>
<trkpt lat="46.88176098" lon="6.66077298"><ele></ele><time>2014-7-4T17:15:58Z</time></trkpt>
<trkpt lat="46.88169200" lon="6.66057902"><ele></ele><time>2014-7-4T17:16:1Z</time></trkpt>
<trkpt lat="46.88162704" lon="6.66047199"><ele></ele><time>2014-7-4T17:16:4Z</time></trkpt>
<trkpt lat="46.88156099" lon="6.66031298"><ele></ele><time>2014-7-4T17:16:7Z</time></trkpt>
<trkpt lat="46.88150198" lon="6.66019203"><ele></ele><time>2014-7-4T17:16:10Z</time></trkpt>
<trkpt lat="46.88144197" lon="6.66008600"><ele></ele><time>2014-7-4T17:16:13Z</time></trkpt>
<trkpt lat="46.88135899" lon="6.65995499"><ele></ele><time>2014-7-4T17:16:16Z</time></trkpt>
<trkpt lat="46.88129696" lon="6.65984401"><ele></ele><time>2014-7-4T17:16:19Z</time></trkpt>
<trkpt lat="46.88121700" lon="6.65968300"><ele></ele><time>2014-7-4T17:16:22Z</time></trkpt>
<trkpt lat="46.88106000" lon="6.65931797"><ele></ele><time>2014-7-4T17:16:25Z</time></trkpt>
<trkpt lat="46.88108800" lon="6.65919199"><ele></ele><time>2014-7-4T17:16:28Z</time></trkpt>
<trkpt lat="46.88108297" lon="6.65910196"><ele></ele><time>2014-7-4T17:16:31Z</time></trkpt>
<trkpt lat="46.88093402" lon="6.65884104"><ele></ele><time>2014-7-4T17:16:34Z</time></trkpt>
<trkpt lat="46.88091198" lon="6.65884296"><ele></ele><time>2014-7-4T17:16:37Z</time></trkpt>
<trkpt lat="46.88090804" lon="6.65877800"><ele></ele><time>2014-7-4T17:16:40Z</time></trkpt>
<trkpt lat="46.88090603" lon="6.65877800"><ele></ele><time>2014-7-4T17:16:43Z</time></trkpt>
<trkpt lat="46.88088600" lon="6.65877499"><ele></ele><time>2014-7-4T17:16:46Z</time></trkpt>
<trkpt lat="46.88087703" lon="6.65877599"><ele></ele><time>2014-7-4T17:16:49Z</time></trkpt>
<trkpt lat="46.88087099" lon="6.65877499"><ele></ele><time>2014-7-4T17:16:52Z</time></trkpt>
<trkpt lat="46.88086303" lon="6.65877004"><ele></ele><time>2014-7-4T17:16:55Z</time></trkpt>
<trkpt lat="46.88094500" lon="6.65858396"><ele></ele><time>2014-7-4T17:16:58Z</time></trkpt>
<trkpt lat="46.88098197" lon="6.65853401"><ele></ele><time>2014-7-4T17:17:1Z</time></trkpt>
<trkpt lat="46.88098398" lon="6.65850400"><ele></ele><time>2014-7-4T17:17:4Z</time></trkpt>
<trkpt lat="46.88095598" lon="6.65840903"><ele></ele><time>2014-7-4T17:17:7Z</time></trkpt>
<trkpt lat="46.88096101" lon="6.65834701"><ele></ele><time>2014-7-4T17:17:10Z</time></trkpt>
<trkpt lat="46.88094702" lon="6.65828297"><ele></ele><time>2014-7-4T17:17:13Z</time></trkpt>
<trkpt lat="46.88084099" lon="6.65811399"><ele></ele><time>2014-7-4T17:17:16Z</time></trkpt>
<trkpt lat="46.88066999" lon="6.65765399"><ele></ele><time>2014-7-4T17:17:19Z</time></trkpt>
<trkpt lat="46.88052096" lon="6.65717103"><ele></ele><time>2014-7-4T17:17:22Z</time></trkpt>
<trkpt lat="46.88037101" lon="6.65667398"><ele></ele><time>2014-7-4T17:17:25Z</time></trkpt>
<trkpt lat="46.88023003" lon="6.65616604"><ele></ele><time>2014-7-4T17:17:28Z</time></trkpt>
<trkpt lat="46.88008804" lon="6.65565801"><ele></ele><time>2014-7-4T17:17:31Z</time></trkpt>
<trkpt lat="46.87995703" lon="6.65514403"><ele></ele><time>2014-7-4T17:17:34Z</time></trkpt>
<trkpt lat="46.87984899" lon="6.65463600"><ele></ele><time>2014-7-4T17:17:37Z</time></trkpt>
<trkpt lat="46.87964397" lon="6.65419796"><ele></ele><time>2014-7-4T17:17:40Z</time></trkpt>
<trkpt lat="46.87949804" lon="6.65370603"><ele></ele><time>2014-7-4T17:17:43Z</time></trkpt>
<trkpt lat="46.87949200" lon="6.65360402"><ele></ele><time>2014-7-4T17:17:46Z</time></trkpt>
<trkpt lat="46.87936803" lon="6.65306297"><ele></ele><time>2014-7-4T17:17:49Z</time></trkpt>
<trkpt lat="46.87935596" lon="6.65253902"><ele></ele><time>2014-7-4T17:17:52Z</time></trkpt>
<trkpt lat="46.87941103" lon="6.65200400"><ele></ele><time>2014-7-4T17:17:55Z</time></trkpt>
<trkpt lat="46.87939603" lon="6.65175003"><ele></ele><time>2014-7-4T17:17:58Z</time></trkpt>
<trkpt lat="46.87924197" lon="6.65121099"><ele></ele><time>2014-7-4T17:18:1Z</time></trkpt>
<trkpt lat="46.87912001" lon="6.65071000"><ele></ele><time>2014-7-4T17:18:4Z</time></trkpt>
<trkpt lat="46.87912001" lon="6.65065602"><ele></ele><time>2014-7-4T17:18:7Z</time></trkpt>
<trkpt lat="46.87910099" lon="6.65050398"><ele></ele><time>2014-7-4T17:18:10Z</time></trkpt>
<trkpt lat="46.87911700" lon="6.65035604"><ele></ele><time>2014-7-4T17:18:13Z</time></trkpt>
<trkpt lat="46.87911297" lon="6.64979403"><ele></ele><time>2014-7-4T17:18:16Z</time></trkpt>
<trkpt lat="46.87924700" lon="6.64928600"><ele></ele><time>2014-7-4T17:18:19Z</time></trkpt>
<trkpt lat="46.87937097" lon="6.64877404"><ele></ele><time>2014-7-4T17:18:22Z</time></trkpt>
<trkpt lat="46.87939201" lon="6.64867798"><ele></ele><time>2014-7-4T17:18:25Z</time></trkpt>
<trkpt lat="46.87939402" lon="6.64860900"><ele></ele><time>2014-7-4T17:18:28Z</time></trkpt>
<trkpt lat="46.87946099" lon="6.64806501"><ele></ele><time>2014-7-4T17:18:31Z</time></trkpt>
<trkpt lat="46.87948999" lon="6.64784700"><ele></ele><time>2014-7-4T17:18:34Z</time></trkpt>
<trkpt lat="46.87955696" lon="6.64729304"><ele></ele><time>2014-7-4T17:18:37Z</time></trkpt>
<trkpt lat="46.87964397" lon="6.64671502"><ele></ele><time>2014-7-4T17:18:40Z</time></trkpt>
<trkpt lat="46.87972301" lon="6.64614497"><ele></ele><time>2014-7-4T17:18:43Z</time></trkpt>
<trkpt lat="46.87980196" lon="6.64562596"><ele></ele><time>2014-7-4T17:18:46Z</time></trkpt>
<trkpt lat="46.87988000" lon="6.64509899"><ele></ele><time>2014-7-4T17:18:49Z</time></trkpt>
<trkpt lat="46.87996700" lon="6.64450798"><ele></ele><time>2014-7-4T17:18:52Z</time></trkpt>
<trkpt lat="46.88001403" lon="6.64391203"><ele></ele><time>2014-7-4T17:18:55Z</time></trkpt>
<trkpt lat="46.88000296" lon="6.64332999"><ele></ele><time>2014-7-4T17:18:58Z</time></trkpt>
<trkpt lat="46.87998796" lon="6.64295800"><ele></ele><time>2014-7-4T17:19:1Z</time></trkpt>
<trkpt lat="46.87998100" lon="6.64262398"><ele></ele><time>2014-7-4T17:19:4Z</time></trkpt>
<trkpt lat="46.87998796" lon="6.64244997"><ele></ele><time>2014-7-4T17:19:7Z</time></trkpt>
<trkpt lat="46.87999601" lon="6.64242600"><ele></ele><time>2014-7-4T17:19:10Z</time></trkpt>
<trkpt lat="46.87998796" lon="6.64243497"><ele></ele><time>2014-7-4T17:19:13Z</time></trkpt>
<trkpt lat="46.87998896" lon="6.64243598"><ele></ele><time>2014-7-4T17:19:16Z</time></trkpt>
<trkpt lat="46.87998100" lon="6.64241100"><ele></ele><time>2014-7-4T17:19:19Z</time></trkpt>
<trkpt lat="46.87998000" lon="6.64241100"><ele></ele><time>2014-7-4T17:19:22Z</time></trkpt>
<trkpt lat="46.88008301" lon="6.64213398"><ele></ele><time>2014-7-4T17:19:25Z</time></trkpt>
<trkpt lat="46.88034704" lon="6.64181303"><ele></ele><time>2014-7-4T17:19:28Z</time></trkpt>
<trkpt lat="46.88064300" lon="6.64143903"><ele></ele><time>2014-7-4T17:19:31Z</time></trkpt>
<trkpt lat="46.88092900" lon="6.64108297"><ele></ele><time>2014-7-4T17:19:34Z</time></trkpt>
<trkpt lat="46.88094802" lon="6.64080301"><ele></ele><time>2014-7-4T17:19:37Z</time></trkpt>
<trkpt lat="46.88055902" lon="6.64096797"><ele></ele><time>2014-7-4T17:19:40Z</time></trkpt>
<trkpt lat="46.88021997" lon="6.64115597"><ele></ele><time>2014-7-4T17:19:43Z</time></trkpt>
<trkpt lat="46.87984002" lon="6.64136100"><ele></ele><time>2014-7-4T17:19:46Z</time></trkpt>
<trkpt lat="46.87942402" lon="6.64142797"><ele></ele><time>2014-7-4T17:19:49Z</time></trkpt>
<trkpt lat="46.87900702" lon="6.64136301"><ele></ele><time>2014-7-4T17:19:52Z</time></trkpt>
<trkpt lat="46.87861098" lon="6.64122001"><ele></ele><time>2014-7-4T17:19:55Z</time></trkpt>
<trkpt lat="46.87825802" lon="6.64093796"><ele></ele><time>2014-7-4T17:19:58Z</time></trkpt>
<trkpt lat="46.87795199" lon="6.64055399"><ele></ele><time>2014-7-4T17:20:1Z</time></trkpt>
<trkpt lat="46.87767698" lon="6.64019197"><ele></ele><time>2014-7-4T17:20:4Z</time></trkpt>
<trkpt lat="46.87738102" lon="6.63979903"><ele></ele><time>2014-7-4T17:20:7Z</time></trkpt>
<trkpt lat="46.87706703" lon="6.63938798"><ele></ele><time>2014-7-4T17:20:10Z</time></trkpt>
<trkpt lat="46.87693301" lon="6.63922101"><ele></ele><time>2014-7-4T17:20:13Z</time></trkpt>
<trkpt lat="46.87666696" lon="6.63887601"><ele></ele><time>2014-7-4T17:20:16Z</time></trkpt>
<trkpt lat="46.87638902" lon="6.63836002"><ele></ele><time>2014-7-4T17:20:19Z</time></trkpt>
<trkpt lat="46.87614402" lon="6.63782098"><ele></ele><time>2014-7-4T17:20:22Z</time></trkpt>
<trkpt lat="46.87599398" lon="6.63750499"><ele></ele><time>2014-7-4T17:20:25Z</time></trkpt>
<trkpt lat="46.87594302" lon="6.63740197"><ele></ele><time>2014-7-4T17:20:28Z</time></trkpt>
<trkpt lat="46.87560900" lon="6.63700299"><ele></ele><time>2014-7-4T17:20:31Z</time></trkpt>
<trkpt lat="46.87553097" lon="6.63695203"><ele></ele><time>2014-7-4T17:20:34Z</time></trkpt>
<trkpt lat="46.87506200" lon="6.63667702"><ele></ele><time>2014-7-4T17:20:37Z</time></trkpt>
<trkpt lat="46.87482303" lon="6.63654501"><ele></ele><time>2014-7-4T17:20:40Z</time></trkpt>
<trkpt lat="46.87442103" lon="6.63631802"><ele></ele><time>2014-7-4T17:20:43Z</time></trkpt>
<trkpt lat="46.87404703" lon="6.63599297"><ele></ele><time>2014-7-4T17:20:46Z</time></trkpt>
<trkpt lat="46.87376398" lon="6.63549601"><ele></ele><time>2014-7-4T17:20:49Z</time></trkpt>
<trkpt lat="46.87352501" lon="6.63497902"><ele></ele><time>2014-7-4T17:20:52Z</time></trkpt>
<trkpt lat="46.87330700" lon="6.63447300"><ele></ele><time>2014-7-4T17:20:55Z</time></trkpt>
<trkpt lat="46.87309200" lon="6.63399297"><ele></ele><time>2014-7-4T17:20:58Z</time></trkpt>
<trkpt lat="46.87289100" lon="6.63355300"><ele></ele><time>2014-7-4T17:21:1Z</time></trkpt>
<trkpt lat="46.87267601" lon="6.63306098"><ele></ele><time>2014-7-4T17:21:4Z</time></trkpt>
<trkpt lat="46.87245204" lon="6.63256503"><ele></ele><time>2014-7-4T17:21:7Z</time></trkpt>
<trkpt lat="46.87223202" lon="6.63207301"><ele></ele><time>2014-7-4T17:21:10Z</time></trkpt>
<trkpt lat="46.87201903" lon="6.63160404"><ele></ele><time>2014-7-4T17:21:13Z</time></trkpt>
<trkpt lat="46.87180697" lon="6.63113499"><ele></ele><time>2014-7-4T17:21:16Z</time></trkpt>
<trkpt lat="46.87160203" lon="6.63067902"><ele></ele><time>2014-7-4T17:21:19Z</time></trkpt>
<trkpt lat="46.87139098" lon="6.63020703"><ele></ele><time>2014-7-4T17:21:22Z</time></trkpt>
<trkpt lat="46.87119400" lon="6.62975902"><ele></ele><time>2014-7-4T17:21:25Z</time></trkpt>
<trkpt lat="46.87101899" lon="6.62929600"><ele></ele><time>2014-7-4T17:21:28Z</time></trkpt>
<trkpt lat="46.87088203" lon="6.62878898"><ele></ele><time>2014-7-4T17:21:31Z</time></trkpt>
<trkpt lat="46.87074800" lon="6.62828104"><ele></ele><time>2014-7-4T17:21:34Z</time></trkpt>
<trkpt lat="46.87061900" lon="6.62776999"><ele></ele><time>2014-7-4T17:21:37Z</time></trkpt>
<trkpt lat="46.87048699" lon="6.62726800"><ele></ele><time>2014-7-4T17:21:40Z</time></trkpt>
<trkpt lat="46.87034399" lon="6.62675897"><ele></ele><time>2014-7-4T17:21:43Z</time></trkpt>
<trkpt lat="46.87018499" lon="6.62625798"><ele></ele><time>2014-7-4T17:21:46Z</time></trkpt>
<trkpt lat="46.87001199" lon="6.62576797"><ele></ele><time>2014-7-4T17:21:49Z</time></trkpt>
<trkpt lat="46.86981803" lon="6.62528199"><ele></ele><time>2014-7-4T17:21:52Z</time></trkpt>
<trkpt lat="46.86961301" lon="6.62479500"><ele></ele><time>2014-7-4T17:21:55Z</time></trkpt>
<trkpt lat="46.86944000" lon="6.62438496"><ele></ele><time>2014-7-4T17:21:58Z</time></trkpt>
<trkpt lat="46.86923297" lon="6.62390803"><ele></ele><time>2014-7-4T17:22:1Z</time></trkpt>
<trkpt lat="46.86904597" lon="6.62345398"><ele></ele><time>2014-7-4T17:22:4Z</time></trkpt>
<trkpt lat="46.86885302" lon="6.62299599"><ele></ele><time>2014-7-4T17:22:7Z</time></trkpt>
<trkpt lat="46.86865504" lon="6.62251504"><ele></ele><time>2014-7-4T17:22:10Z</time></trkpt>
<trkpt lat="46.86845597" lon="6.62203702"><ele></ele><time>2014-7-4T17:22:13Z</time></trkpt>
<trkpt lat="46.86827098" lon="6.62155003"><ele></ele><time>2014-7-4T17:22:16Z</time></trkpt>
<trkpt lat="46.86807602" lon="6.62110101"><ele></ele><time>2014-7-4T17:22:19Z</time></trkpt>
<trkpt lat="46.86788600" lon="6.62060799"><ele></ele><time>2014-7-4T17:22:22Z</time></trkpt>
<trkpt lat="46.86774703" lon="6.62025503"><ele></ele><time>2014-7-4T17:22:25Z</time></trkpt>
<trkpt lat="46.86755902" lon="6.61980199"><ele></ele><time>2014-7-4T17:22:28Z</time></trkpt>
<trkpt lat="46.86748199" lon="6.61959697"><ele></ele><time>2014-7-4T17:22:31Z</time></trkpt>
<trkpt lat="46.86733397" lon="6.61924400"><ele></ele><time>2014-7-4T17:22:34Z</time></trkpt>
<trkpt lat="46.86712199" lon="6.61872801"><ele></ele><time>2014-7-4T17:22:37Z</time></trkpt>
<trkpt lat="46.86691403" lon="6.61822803"><ele></ele><time>2014-7-4T17:22:40Z</time></trkpt>
<trkpt lat="46.86671798" lon="6.61777298"><ele></ele><time>2014-7-4T17:22:43Z</time></trkpt>
<trkpt lat="46.86653702" lon="6.61733000"><ele></ele><time>2014-7-4T17:22:46Z</time></trkpt>
<trkpt lat="46.86645697" lon="6.61713302"><ele></ele><time>2014-7-4T17:22:49Z</time></trkpt>
<trkpt lat="46.86623803" lon="6.61661401"><ele></ele><time>2014-7-4T17:22:52Z</time></trkpt>
<trkpt lat="46.86601499" lon="6.61605603"><ele></ele><time>2014-7-4T17:22:55Z</time></trkpt>
<trkpt lat="46.86584903" lon="6.61557399"><ele></ele><time>2014-7-4T17:22:58Z</time></trkpt>
<trkpt lat="46.86571199" lon="6.61506596"><ele></ele><time>2014-7-4T17:23:1Z</time></trkpt>
<trkpt lat="46.86557502" lon="6.61453798"><ele></ele><time>2014-7-4T17:23:4Z</time></trkpt>
<trkpt lat="46.86543999" lon="6.61400397"><ele></ele><time>2014-7-4T17:23:7Z</time></trkpt>
<trkpt lat="46.86529599" lon="6.61346602"><ele></ele><time>2014-7-4T17:23:10Z</time></trkpt>
<trkpt lat="46.86526003" lon="6.61333099"><ele></ele><time>2014-7-4T17:23:13Z</time></trkpt>
<trkpt lat="46.86511997" lon="6.61279304"><ele></ele><time>2014-7-4T17:23:16Z</time></trkpt>
<trkpt lat="46.86497496" lon="6.61225702"><ele></ele><time>2014-7-4T17:23:19Z</time></trkpt>
<trkpt lat="46.86483800" lon="6.61172200"><ele></ele><time>2014-7-4T17:23:22Z</time></trkpt>
<trkpt lat="46.86469601" lon="6.61119604"><ele></ele><time>2014-7-4T17:23:25Z</time></trkpt>
<trkpt lat="46.86455503" lon="6.61067300"><ele></ele><time>2014-7-4T17:23:28Z</time></trkpt>
<trkpt lat="46.86441698" lon="6.61015400"><ele></ele><time>2014-7-4T17:23:31Z</time></trkpt>
<trkpt lat="46.86427600" lon="6.60963801"><ele></ele><time>2014-7-4T17:23:34Z</time></trkpt>
<trkpt lat="46.86413602" lon="6.60912202"><ele></ele><time>2014-7-4T17:23:37Z</time></trkpt>
<trkpt lat="46.86399596" lon="6.60860997"><ele></ele><time>2014-7-4T17:23:40Z</time></trkpt>
<trkpt lat="46.86386403" lon="6.60810404"><ele></ele><time>2014-7-4T17:23:43Z</time></trkpt>
<trkpt lat="46.86370100" lon="6.60749400"><ele></ele><time>2014-7-4T17:23:46Z</time></trkpt>
<trkpt lat="46.86356999" lon="6.60700299"><ele></ele><time>2014-7-4T17:23:49Z</time></trkpt>
<trkpt lat="46.86343898" lon="6.60650703"><ele></ele><time>2014-7-4T17:23:52Z</time></trkpt>
<trkpt lat="46.86329397" lon="6.60595600"><ele></ele><time>2014-7-4T17:23:55Z</time></trkpt>
<trkpt lat="46.86313899" lon="6.60543197"><ele></ele><time>2014-7-4T17:23:58Z</time></trkpt>
<trkpt lat="46.86311401" lon="6.60533801"><ele></ele><time>2014-7-4T17:24:1Z</time></trkpt>
<trkpt lat="46.86314997" lon="6.60526098"><ele></ele><time>2014-7-4T17:24:4Z</time></trkpt>
<trkpt lat="46.86325500" lon="6.60528503"><ele></ele><time>2014-7-4T17:24:7Z</time></trkpt>
<trkpt lat="46.86324896" lon="6.60527598"><ele></ele><time>2014-7-4T17:24:10Z</time></trkpt>
<trkpt lat="46.86325701" lon="6.60527900"><ele></ele><time>2014-7-4T17:24:13Z</time></trkpt>
<trkpt lat="46.86346203" lon="6.60496099"><ele></ele><time>2014-7-4T17:24:16Z</time></trkpt>
<trkpt lat="46.86352800" lon="6.60435800"><ele></ele><time>2014-7-4T17:24:19Z</time></trkpt>
<trkpt lat="46.86355197" lon="6.60383698"><ele></ele><time>2014-7-4T17:24:22Z</time></trkpt>
<trkpt lat="46.86356303" lon="6.60325896"><ele></ele><time>2014-7-4T17:24:25Z</time></trkpt>
<trkpt lat="46.86355398" lon="6.60264901"><ele></ele><time>2014-7-4T17:24:28Z</time></trkpt>
<trkpt lat="46.86355004" lon="6.60203897"><ele></ele><time>2014-7-4T17:24:31Z</time></trkpt>
<trkpt lat="46.86354300" lon="6.60144201"><ele></ele><time>2014-7-4T17:24:34Z</time></trkpt>
<trkpt lat="46.86353596" lon="6.60087196"><ele></ele><time>2014-7-4T17:24:37Z</time></trkpt>
<trkpt lat="46.86352800" lon="6.60026000"><ele></ele><time>2014-7-4T17:24:40Z</time></trkpt>
<trkpt lat="46.86352104" lon="6.59966304"><ele></ele><time>2014-7-4T17:24:43Z</time></trkpt>
<trkpt lat="46.86350796" lon="6.59911302"><ele></ele><time>2014-7-4T17:24:46Z</time></trkpt>
<trkpt lat="46.86350101" lon="6.59858697"><ele></ele><time>2014-7-4T17:24:49Z</time></trkpt>
<trkpt lat="46.86348902" lon="6.59805598"><ele></ele><time>2014-7-4T17:24:52Z</time></trkpt>
<trkpt lat="46.86349204" lon="6.59749699"><ele></ele><time>2014-7-4T17:24:55Z</time></trkpt>
<trkpt lat="46.86345097" lon="6.59693498"><ele></ele><time>2014-7-4T17:24:58Z</time></trkpt>
<trkpt lat="46.86340604" lon="6.59636803"><ele></ele><time>2014-7-4T17:25:1Z</time></trkpt>
<trkpt lat="46.86340101" lon="6.59582497"><ele></ele><time>2014-7-4T17:25:4Z</time></trkpt>
<trkpt lat="46.86337997" lon="6.59527997"><ele></ele><time>2014-7-4T17:25:7Z</time></trkpt>
<trkpt lat="46.86329699" lon="6.59472501"><ele></ele><time>2014-7-4T17:25:10Z</time></trkpt>
<trkpt lat="46.86320001" lon="6.59421396"><ele></ele><time>2014-7-4T17:25:13Z</time></trkpt>
<trkpt lat="46.86313698" lon="6.59366403"><ele></ele><time>2014-7-4T17:25:16Z</time></trkpt>
<trkpt lat="46.86302600" lon="6.59313999"><ele></ele><time>2014-7-4T17:25:19Z</time></trkpt>
<trkpt lat="46.86286096" lon="6.59263498"><ele></ele><time>2014-7-4T17:25:22Z</time></trkpt>
<trkpt lat="46.86264304" lon="6.59219602"><ele></ele><time>2014-7-4T17:25:25Z</time></trkpt>
<trkpt lat="46.86248898" lon="6.59198496"><ele></ele><time>2014-7-4T17:25:28Z</time></trkpt>
<trkpt lat="46.86237297" lon="6.59182898"><ele></ele><time>2014-7-4T17:25:31Z</time></trkpt>
<trkpt lat="46.86216703" lon="6.59139002"><ele></ele><time>2014-7-4T17:25:34Z</time></trkpt>
<trkpt lat="46.86188296" lon="6.59105600"><ele></ele><time>2014-7-4T17:25:37Z</time></trkpt>
<trkpt lat="46.86169596" lon="6.59087797"><ele></ele><time>2014-7-4T17:25:40Z</time></trkpt>
<trkpt lat="46.86143696" lon="6.59077998"><ele></ele><time>2014-7-4T17:25:43Z</time></trkpt>
<trkpt lat="46.86133403" lon="6.59070597"><ele></ele><time>2014-7-4T17:25:46Z</time></trkpt>
<trkpt lat="46.86129900" lon="6.59064897"><ele></ele><time>2014-7-4T17:25:49Z</time></trkpt>
<trkpt lat="46.86114100" lon="6.59030498"><ele></ele><time>2014-7-4T17:25:52Z</time></trkpt>
<trkpt lat="46.86111904" lon="6.59026098"><ele></ele><time>2014-7-4T17:25:55Z</time></trkpt>
<trkpt lat="46.86111803" lon="6.59022803"><ele></ele><time>2014-7-4T17:25:58Z</time></trkpt>
<trkpt lat="46.86126002" lon="6.59010700"><ele></ele><time>2014-7-4T17:26:1Z</time></trkpt>
<trkpt lat="46.86128098" lon="6.59010197"><ele></ele><time>2014-7-4T17:26:4Z</time></trkpt>
<trkpt lat="46.86136899" lon="6.59007699"><ele></ele><time>2014-7-4T17:26:7Z</time></trkpt>
<trkpt lat="46.86137401" lon="6.59005503"><ele></ele><time>2014-7-4T17:26:10Z</time></trkpt>
<trkpt lat="46.86138801" lon="6.59004900"><ele></ele><time>2014-7-4T17:26:13Z</time></trkpt>
<trkpt lat="46.86138198" lon="6.59003399"><ele></ele><time>2014-7-4T17:26:16Z</time></trkpt>
<trkpt lat="46.86135901" lon="6.59003902"><ele></ele><time>2014-7-4T17:26:19Z</time></trkpt>
<trkpt lat="46.86133303" lon="6.59001597"><ele></ele><time>2014-7-4T17:26:22Z</time></trkpt>
<trkpt lat="46.86105299" lon="6.58973501"><ele></ele><time>2014-7-4T17:26:25Z</time></trkpt>
<trkpt lat="46.86078301" lon="6.58932597"><ele></ele><time>2014-7-4T17:26:28Z</time></trkpt>
<trkpt lat="46.86055401" lon="6.58894401"><ele></ele><time>2014-7-4T17:26:31Z</time></trkpt>
<trkpt lat="46.86034698" lon="6.58861896"><ele></ele><time>2014-7-4T17:26:34Z</time></trkpt>
<trkpt lat="46.86021899" lon="6.58837899"><ele></ele><time>2014-7-4T17:26:37Z</time></trkpt>
<trkpt lat="46.86010097" lon="6.58814597"><ele></ele><time>2014-7-4T17:26:40Z</time></trkpt>
<trkpt lat="46.85993099" lon="6.58779804"><ele></ele><time>2014-7-4T17:26:43Z</time></trkpt>
<trkpt lat="46.85998698" lon="6.58775797"><ele></ele><time>2014-7-4T17:26:46Z</time></trkpt>
<trkpt lat="46.85992696" lon="6.58757701"><ele></ele><time>2014-7-4T17:26:49Z</time></trkpt>
<trkpt lat="46.85992101" lon="6.58761699"><ele></ele><time>2014-7-4T17:26:52Z</time></trkpt>
<trkpt lat="46.85987801" lon="6.58754700"><ele></ele><time>2014-7-4T17:26:55Z</time></trkpt>
<trkpt lat="46.85987701" lon="6.58754800"><ele></ele><time>2014-7-4T17:26:58Z</time></trkpt>
<trkpt lat="46.85987600" lon="6.58754700"><ele></ele><time>2014-7-4T17:27:1Z</time></trkpt>
<trkpt lat="46.85983300" lon="6.58746704"><ele></ele><time>2014-7-4T17:27:4Z</time></trkpt>
<trkpt lat="46.85964801" lon="6.58700100"><ele></ele><time>2014-7-4T17:27:7Z</time></trkpt>
<trkpt lat="46.85958900" lon="6.58684300"><ele></ele><time>2014-7-4T17:27:10Z</time></trkpt>
<trkpt lat="46.85942799" lon="6.58635199"><ele></ele><time>2014-7-4T17:27:13Z</time></trkpt>
<trkpt lat="46.85933998" lon="6.58604303"><ele></ele><time>2014-7-4T17:27:16Z</time></trkpt>
<trkpt lat="46.85921098" lon="6.58562503"><ele></ele><time>2014-7-4T17:27:19Z</time></trkpt>
<trkpt lat="46.85916203" lon="6.58541397"><ele></ele><time>2014-7-4T17:27:22Z</time></trkpt>
<trkpt lat="46.85913202" lon="6.58527902"><ele></ele><time>2014-7-4T17:27:25Z</time></trkpt>
<trkpt lat="46.85910000" lon="6.58516101"><ele></ele><time>2014-7-4T17:27:28Z</time></trkpt>
<trkpt lat="46.85907796" lon="6.58507300"><ele></ele><time>2014-7-4T17:27:31Z</time></trkpt>
<trkpt lat="46.85904996" lon="6.58494903"><ele></ele><time>2014-7-4T17:27:34Z</time></trkpt>
<trkpt lat="46.85901803" lon="6.58477100"><ele></ele><time>2014-7-4T17:27:37Z</time></trkpt>
<trkpt lat="46.85893597" lon="6.58440596"><ele></ele><time>2014-7-4T17:27:40Z</time></trkpt>
<trkpt lat="46.85871201" lon="6.58398301"><ele></ele><time>2014-7-4T17:27:43Z</time></trkpt>
<trkpt lat="46.85869901" lon="6.58396298"><ele></ele><time>2014-7-4T17:27:46Z</time></trkpt>
<trkpt lat="46.85862903" lon="6.58377497"><ele></ele><time>2014-7-4T17:27:49Z</time></trkpt>
<trkpt lat="46.85860799" lon="6.58373902"><ele></ele><time>2014-7-4T17:27:52Z</time></trkpt>
<trkpt lat="46.85851696" lon="6.58353802"><ele></ele><time>2014-7-4T17:27:55Z</time></trkpt>
<trkpt lat="46.85848603" lon="6.58344498"><ele></ele><time>2014-7-4T17:27:58Z</time></trkpt>
<trkpt lat="46.85845200" lon="6.58320702"><ele></ele><time>2014-7-4T17:28:1Z</time></trkpt>
<trkpt lat="46.85835804" lon="6.58269396"><ele></ele><time>2014-7-4T17:28:4Z</time></trkpt>
<trkpt lat="46.85813399" lon="6.58225399"><ele></ele><time>2014-7-4T17:28:7Z</time></trkpt>
<trkpt lat="46.85791497" lon="6.58184303"><ele></ele><time>2014-7-4T17:28:10Z</time></trkpt>
<trkpt lat="46.85774499" lon="6.58146802"><ele></ele><time>2014-7-4T17:28:13Z</time></trkpt>
<trkpt lat="46.85763996" lon="6.58119502"><ele></ele><time>2014-7-4T17:28:16Z</time></trkpt>
<trkpt lat="46.85757601" lon="6.58103200"><ele></ele><time>2014-7-4T17:28:19Z</time></trkpt>
<trkpt lat="46.85746796" lon="6.58081600"><ele></ele><time>2014-7-4T17:28:22Z</time></trkpt>
<trkpt lat="46.85732304" lon="6.58033303"><ele></ele><time>2014-7-4T17:28:25Z</time></trkpt>
<trkpt lat="46.85725900" lon="6.58003899"><ele></ele><time>2014-7-4T17:28:28Z</time></trkpt>
<trkpt lat="46.85720502" lon="6.57985803"><ele></ele><time>2014-7-4T17:28:31Z</time></trkpt>
<trkpt lat="46.85696899" lon="6.57935997"><ele></ele><time>2014-7-4T17:28:34Z</time></trkpt>
<trkpt lat="46.85692297" lon="6.57917499"><ele></ele><time>2014-7-4T17:28:37Z</time></trkpt>
<trkpt lat="46.85690101" lon="6.57895597"><ele></ele><time>2014-7-4T17:28:40Z</time></trkpt>
<trkpt lat="46.85686799" lon="6.57883200"><ele></ele><time>2014-7-4T17:28:43Z</time></trkpt>
<trkpt lat="46.85683999" lon="6.57868003"><ele></ele><time>2014-7-4T17:28:46Z</time></trkpt>
<trkpt lat="46.85681602" lon="6.57820201"><ele></ele><time>2014-7-4T17:28:49Z</time></trkpt>
<trkpt lat="46.85686204" lon="6.57811400"><ele></ele><time>2014-7-4T17:28:52Z</time></trkpt>
<trkpt lat="46.85697603" lon="6.57800697"><ele></ele><time>2014-7-4T17:28:55Z</time></trkpt>
<trkpt lat="46.85706002" lon="6.57794704"><ele></ele><time>2014-7-4T17:28:58Z</time></trkpt>
<trkpt lat="46.85709396" lon="6.57779600"><ele></ele><time>2014-7-4T17:29:1Z</time></trkpt>
<trkpt lat="46.85709396" lon="6.57777504"><ele></ele><time>2014-7-4T17:29:4Z</time></trkpt>
<trkpt lat="46.85709899" lon="6.57779499"><ele></ele><time>2014-7-4T17:29:7Z</time></trkpt>
<trkpt lat="46.85708701" lon="6.57778803"><ele></ele><time>2014-7-4T17:29:10Z</time></trkpt>
<trkpt lat="46.85704602" lon="6.57777697"><ele></ele><time>2014-7-4T17:29:13Z</time></trkpt>
<trkpt lat="46.85703504" lon="6.57775300"><ele></ele><time>2014-7-4T17:29:16Z</time></trkpt>
<trkpt lat="46.85703898" lon="6.57764998"><ele></ele><time>2014-7-4T17:29:19Z</time></trkpt>
<trkpt lat="46.85705398" lon="6.57751000"><ele></ele><time>2014-7-4T17:29:22Z</time></trkpt>
<trkpt lat="46.85704602" lon="6.57734798"><ele></ele><time>2014-7-4T17:29:25Z</time></trkpt>
<trkpt lat="46.85702297" lon="6.57719702"><ele></ele><time>2014-7-4T17:29:28Z</time></trkpt>
<trkpt lat="46.85696396" lon="6.57704196"><ele></ele><time>2014-7-4T17:29:31Z</time></trkpt>
<trkpt lat="46.85694301" lon="6.57696200"><ele></ele><time>2014-7-4T17:29:34Z</time></trkpt>
<trkpt lat="46.85690202" lon="6.57668699"><ele></ele><time>2014-7-4T17:29:37Z</time></trkpt>
<trkpt lat="46.85688400" lon="6.57656796"><ele></ele><time>2014-7-4T17:29:40Z</time></trkpt>
<trkpt lat="46.85685399" lon="6.57633000"><ele></ele><time>2014-7-4T17:29:43Z</time></trkpt>
<trkpt lat="46.85675902" lon="6.57610696"><ele></ele><time>2014-7-4T17:29:46Z</time></trkpt>
<trkpt lat="46.85666397" lon="6.57595097"><ele></ele><time>2014-7-4T17:29:49Z</time></trkpt>
<trkpt lat="46.85659097" lon="6.57586799"><ele></ele><time>2014-7-4T17:29:52Z</time></trkpt>
<trkpt lat="46.85640103" lon="6.57569599"><ele></ele><time>2014-7-4T17:29:55Z</time></trkpt>
<trkpt lat="46.85634596" lon="6.57565400"><ele></ele><time>2014-7-4T17:29:58Z</time></trkpt>
<trkpt lat="46.85614999" lon="6.57532602"><ele></ele><time>2014-7-4T17:30:1Z</time></trkpt>
<trkpt lat="46.85595101" lon="6.57503801"><ele></ele><time>2014-7-4T17:30:4Z</time></trkpt>
<trkpt lat="46.85584104" lon="6.57488697"><ele></ele><time>2014-7-4T17:30:7Z</time></trkpt>
<trkpt lat="46.85570902" lon="6.57459302"><ele></ele><time>2014-7-4T17:30:10Z</time></trkpt>
<trkpt lat="46.85563099" lon="6.57449897"><ele></ele><time>2014-7-4T17:30:13Z</time></trkpt>
<trkpt lat="46.85550702" lon="6.57431197"><ele></ele><time>2014-7-4T17:30:16Z</time></trkpt>
<trkpt lat="46.85545002" lon="6.57423201"><ele></ele><time>2014-7-4T17:30:19Z</time></trkpt>
<trkpt lat="46.85527400" lon="6.57398902"><ele></ele><time>2014-7-4T17:30:22Z</time></trkpt>
<trkpt lat="46.85519303" lon="6.57384703"><ele></ele><time>2014-7-4T17:30:25Z</time></trkpt>
<trkpt lat="46.85506202" lon="6.57372499"><ele></ele><time>2014-7-4T17:30:28Z</time></trkpt>
<trkpt lat="46.85500201" lon="6.57362198"><ele></ele><time>2014-7-4T17:30:31Z</time></trkpt>
<trkpt lat="46.85482297" lon="6.57338602"><ele></ele><time>2014-7-4T17:30:34Z</time></trkpt>
<trkpt lat="46.85472297" lon="6.57319198"><ele></ele><time>2014-7-4T17:30:37Z</time></trkpt>
<trkpt lat="46.85468702" lon="6.57295100"><ele></ele><time>2014-7-4T17:30:40Z</time></trkpt>
<trkpt lat="46.85464201" lon="6.57279803"><ele></ele><time>2014-7-4T17:30:43Z</time></trkpt>
<trkpt lat="46.85434302" lon="6.57242596"><ele></ele><time>2014-7-4T17:30:46Z</time></trkpt>
<trkpt lat="46.85410699" lon="6.57203101"><ele></ele><time>2014-7-4T17:30:49Z</time></trkpt>
<trkpt lat="46.85383399" lon="6.57164301"><ele></ele><time>2014-7-4T17:30:52Z</time></trkpt>
<trkpt lat="46.85354699" lon="6.57131804"><ele></ele><time>2014-7-4T17:30:55Z</time></trkpt>
<trkpt lat="46.85339503" lon="6.57113699"><ele></ele><time>2014-7-4T17:30:58Z</time></trkpt>
<trkpt lat="46.85328104" lon="6.57101403"><ele></ele><time>2014-7-4T17:31:1Z</time></trkpt>
<trkpt lat="46.85321901" lon="6.57095896"><ele></ele><time>2014-7-4T17:31:4Z</time></trkpt>
<trkpt lat="46.85305397" lon="6.57080901"><ele></ele><time>2014-7-4T17:31:7Z</time></trkpt>
<trkpt lat="46.85290502" lon="6.57074497"><ele></ele><time>2014-7-4T17:31:10Z</time></trkpt>
<trkpt lat="46.85287703" lon="6.57066903"><ele></ele><time>2014-7-4T17:31:13Z</time></trkpt>
<trkpt lat="46.85276404" lon="6.57055303"><ele></ele><time>2014-7-4T17:31:16Z</time></trkpt>
<trkpt lat="46.85268902" lon="6.57044699"><ele></ele><time>2014-7-4T17:31:19Z</time></trkpt>
<trkpt lat="46.85246699" lon="6.57024298"><ele></ele><time>2014-7-4T17:31:22Z</time></trkpt>
<trkpt lat="46.85239599" lon="6.56989102"><ele></ele><time>2014-7-4T17:31:25Z</time></trkpt>
<trkpt lat="46.85235500" lon="6.56980301"><ele></ele><time>2014-7-4T17:31:28Z</time></trkpt>
<trkpt lat="46.85228803" lon="6.56964703"><ele></ele><time>2014-7-4T17:31:31Z</time></trkpt>
<trkpt lat="46.85228401" lon="6.56963102"><ele></ele><time>2014-7-4T17:31:34Z</time></trkpt>
<trkpt lat="46.85227999" lon="6.56956203"><ele></ele><time>2014-7-4T17:31:37Z</time></trkpt>
<trkpt lat="46.85224897" lon="6.56948199"><ele></ele><time>2014-7-4T17:31:40Z</time></trkpt>
<trkpt lat="46.85222098" lon="6.56940697"><ele></ele><time>2014-7-4T17:31:43Z</time></trkpt>
<trkpt lat="46.85217102" lon="6.56926196"><ele></ele><time>2014-7-4T17:31:46Z</time></trkpt>
<trkpt lat="46.85216096" lon="6.56920404"><ele></ele><time>2014-7-4T17:31:49Z</time></trkpt>
<trkpt lat="46.85196600" lon="6.56873801"><ele></ele><time>2014-7-4T17:31:52Z</time></trkpt>
<trkpt lat="46.85188402" lon="6.56855696"><ele></ele><time>2014-7-4T17:31:55Z</time></trkpt>
<trkpt lat="46.85177397" lon="6.56829997"><ele></ele><time>2014-7-4T17:31:58Z</time></trkpt>
<trkpt lat="46.85168303" lon="6.56795103"><ele></ele><time>2014-7-4T17:32:1Z</time></trkpt>
<trkpt lat="46.85162603" lon="6.56759304"><ele></ele><time>2014-7-4T17:32:4Z</time></trkpt>
<trkpt lat="46.85161103" lon="6.56748399"><ele></ele><time>2014-7-4T17:32:7Z</time></trkpt>
<trkpt lat="46.85161103" lon="6.56747703"><ele></ele><time>2014-7-4T17:32:10Z</time></trkpt>
<trkpt lat="46.85158798" lon="6.56729397"><ele></ele><time>2014-7-4T17:32:13Z</time></trkpt>
<trkpt lat="46.85162502" lon="6.56716498"><ele></ele><time>2014-7-4T17:32:16Z</time></trkpt>
<trkpt lat="46.85156601" lon="6.56685501"><ele></ele><time>2014-7-4T17:32:19Z</time></trkpt>
<trkpt lat="46.85143400" lon="6.56633701"><ele></ele><time>2014-7-4T17:32:22Z</time></trkpt>
<trkpt lat="46.85141204" lon="6.56619402"><ele></ele><time>2014-7-4T17:32:25Z</time></trkpt>
<trkpt lat="46.85141397" lon="6.56619301"><ele></ele><time>2014-7-4T17:32:28Z</time></trkpt>
<trkpt lat="46.85137901" lon="6.56614096"><ele></ele><time>2014-7-4T17:32:31Z</time></trkpt>
<trkpt lat="46.85129503" lon="6.56609000"><ele></ele><time>2014-7-4T17:32:34Z</time></trkpt>
<trkpt lat="46.85091600" lon="6.56587098"><ele></ele><time>2014-7-4T17:32:37Z</time></trkpt>
<trkpt lat="46.85063403" lon="6.56553403"><ele></ele><time>2014-7-4T17:32:40Z</time></trkpt>
<trkpt lat="46.85047897" lon="6.56537100"><ele></ele><time>2014-7-4T17:32:43Z</time></trkpt>
<trkpt lat="46.85009499" lon="6.56546798"><ele></ele><time>2014-7-4T17:32:46Z</time></trkpt>
<trkpt lat="46.84990397" lon="6.56555498"><ele></ele><time>2014-7-4T17:32:49Z</time></trkpt>
<trkpt lat="46.84960096" lon="6.56547904"><ele></ele><time>2014-7-4T17:32:52Z</time></trkpt>
<trkpt lat="46.84934104" lon="6.56531802"><ele></ele><time>2014-7-4T17:32:55Z</time></trkpt>
<trkpt lat="46.84906896" lon="6.56513697"><ele></ele><time>2014-7-4T17:32:58Z</time></trkpt>
<trkpt lat="46.84897400" lon="6.56507201"><ele></ele><time>2014-7-4T17:33:1Z</time></trkpt>
<trkpt lat="46.84862799" lon="6.56473196"><ele></ele><time>2014-7-4T17:33:4Z</time></trkpt>
<trkpt lat="46.84840201" lon="6.56444002"><ele></ele><time>2014-7-4T17:33:7Z</time></trkpt>
<trkpt lat="46.84825902" lon="6.56429200"><ele></ele><time>2014-7-4T17:33:10Z</time></trkpt>
<trkpt lat="46.84800899" lon="6.56407298"><ele></ele><time>2014-7-4T17:33:13Z</time></trkpt>
<trkpt lat="46.84770296" lon="6.56358800"><ele></ele><time>2014-7-4T17:33:16Z</time></trkpt>
<trkpt lat="46.84739401" lon="6.56324501"><ele></ele><time>2014-7-4T17:33:19Z</time></trkpt>
<trkpt lat="46.84733097" lon="6.56316304"><ele></ele><time>2014-7-4T17:33:22Z</time></trkpt>
<trkpt lat="46.84711397" lon="6.56289398"><ele></ele><time>2014-7-4T17:33:25Z</time></trkpt>
<trkpt lat="46.84685304" lon="6.56262701"><ele></ele><time>2014-7-4T17:33:28Z</time></trkpt>
<trkpt lat="46.84645699" lon="6.56246197"><ele></ele><time>2014-7-4T17:33:31Z</time></trkpt>
<trkpt lat="46.84607402" lon="6.56230800"><ele></ele><time>2014-7-4T17:33:34Z</time></trkpt>
<trkpt lat="46.84583598" lon="6.56221898"><ele></ele><time>2014-7-4T17:33:37Z</time></trkpt>
<trkpt lat="46.84530398" lon="6.56220800"><ele></ele><time>2014-7-4T17:33:40Z</time></trkpt>
<trkpt lat="46.84495202" lon="6.56221898"><ele></ele><time>2014-7-4T17:33:43Z</time></trkpt>
<trkpt lat="46.84460702" lon="6.56212402"><ele></ele><time>2014-7-4T17:33:46Z</time></trkpt>
<trkpt lat="46.84421299" lon="6.56183300"><ele></ele><time>2014-7-4T17:33:49Z</time></trkpt>
<trkpt lat="46.84376598" lon="6.56159503"><ele></ele><time>2014-7-4T17:33:52Z</time></trkpt>
<trkpt lat="46.84343398" lon="6.56117502"><ele></ele><time>2014-7-4T17:33:55Z</time></trkpt>
<trkpt lat="46.84313298" lon="6.56077604"><ele></ele><time>2014-7-4T17:33:58Z</time></trkpt>
<trkpt lat="46.84285001" lon="6.56041897"><ele></ele><time>2014-7-4T17:34:1Z</time></trkpt>
<trkpt lat="46.84261397" lon="6.56008000"><ele></ele><time>2014-7-4T17:34:4Z</time></trkpt>
<trkpt lat="46.84231399" lon="6.55995897"><ele></ele><time>2014-7-4T17:34:7Z</time></trkpt>
<trkpt lat="46.83818498" lon="6.55824797"><ele></ele><time>2014-7-4T17:34:10Z</time></trkpt>
<trkpt lat="46.83783503" lon="6.55810104"><ele></ele><time>2014-7-4T17:34:13Z</time></trkpt>
<trkpt lat="46.83746698" lon="6.55795997"><ele></ele><time>2014-7-4T17:34:16Z</time></trkpt>
<trkpt lat="46.83711603" lon="6.55781597"><ele></ele><time>2014-7-4T17:34:19Z</time></trkpt>
<trkpt lat="46.83676098" lon="6.55765302"><ele></ele><time>2014-7-4T17:34:22Z</time></trkpt>
<trkpt lat="46.83660599" lon="6.55758203"><ele></ele><time>2014-7-4T17:34:25Z</time></trkpt>
<trkpt lat="46.83651798" lon="6.55750802"><ele></ele><time>2014-7-4T17:34:28Z</time></trkpt>
<trkpt lat="46.83625001" lon="6.55744499"><ele></ele><time>2014-7-4T17:34:31Z</time></trkpt>
<trkpt lat="46.83623401" lon="6.55743199"><ele></ele><time>2014-7-4T17:34:34Z</time></trkpt>
<trkpt lat="46.83623903" lon="6.55732202"><ele></ele><time>2014-7-4T17:34:37Z</time></trkpt>
<trkpt lat="46.83628698" lon="6.55696596"><ele></ele><time>2014-7-4T17:34:40Z</time></trkpt>
<trkpt lat="46.83630902" lon="6.55661300"><ele></ele><time>2014-7-4T17:34:43Z</time></trkpt>
<trkpt lat="46.83632000" lon="6.55634503"><ele></ele><time>2014-7-4T17:34:46Z</time></trkpt>
<trkpt lat="46.83632202" lon="6.55617404"><ele></ele><time>2014-7-4T17:34:49Z</time></trkpt>
<trkpt lat="46.83619704" lon="6.55613104"><ele></ele><time>2014-7-4T17:34:52Z</time></trkpt>
<trkpt lat="46.83612697" lon="6.55605401"><ele></ele><time>2014-7-4T17:34:55Z</time></trkpt>
<trkpt lat="46.83609000" lon="6.55600699"><ele></ele><time>2014-7-4T17:34:58Z</time></trkpt>
<trkpt lat="46.83579002" lon="6.55563701"><ele></ele><time>2014-7-4T17:35:1Z</time></trkpt>
<trkpt lat="46.83547301" lon="6.55535697"><ele></ele><time>2014-7-4T17:35:4Z</time></trkpt>
<trkpt lat="46.83524603" lon="6.55519503"><ele></ele><time>2014-7-4T17:35:7Z</time></trkpt>
<trkpt lat="46.83495300" lon="6.55494802"><ele></ele><time>2014-7-4T17:35:10Z</time></trkpt>
<trkpt lat="46.83461999" lon="6.55470503"><ele></ele><time>2014-7-4T17:35:13Z</time></trkpt>
<trkpt lat="46.83432796" lon="6.55446597"><ele></ele><time>2014-7-4T17:35:16Z</time></trkpt>
<trkpt lat="46.83422201" lon="6.55425601"><ele></ele><time>2014-7-4T17:35:19Z</time></trkpt>
<trkpt lat="46.83408899" lon="6.55387103"><ele></ele><time>2014-7-4T17:35:22Z</time></trkpt>
<trkpt lat="46.83395304" lon="6.55357900"><ele></ele><time>2014-7-4T17:35:25Z</time></trkpt>
<trkpt lat="46.83376696" lon="6.55311397"><ele></ele><time>2014-7-4T17:35:28Z</time></trkpt>
<trkpt lat="46.83372597" lon="6.55259103"><ele></ele><time>2014-7-4T17:35:31Z</time></trkpt>
<trkpt lat="46.83377802" lon="6.55206598"><ele></ele><time>2014-7-4T17:35:34Z</time></trkpt>
<trkpt lat="46.83365397" lon="6.55172501"><ele></ele><time>2014-7-4T17:35:37Z</time></trkpt>
<trkpt lat="46.83336102" lon="6.55138101"><ele></ele><time>2014-7-4T17:35:40Z</time></trkpt>
<trkpt lat="46.83305198" lon="6.55104096"><ele></ele><time>2014-7-4T17:35:43Z</time></trkpt>
<trkpt lat="46.83274403" lon="6.55069202"><ele></ele><time>2014-7-4T17:35:46Z</time></trkpt>
<trkpt lat="46.83239602" lon="6.55049203"><ele></ele><time>2014-7-4T17:35:49Z</time></trkpt>
<trkpt lat="46.83223299" lon="6.55034099"><ele></ele><time>2014-7-4T17:35:52Z</time></trkpt>
<trkpt lat="46.83202696" lon="6.55010202"><ele></ele><time>2014-7-4T17:35:55Z</time></trkpt>
<trkpt lat="46.83199201" lon="6.55006397"><ele></ele><time>2014-7-4T17:35:58Z</time></trkpt>
<trkpt lat="46.83189704" lon="6.54985802"><ele></ele><time>2014-7-4T17:36:1Z</time></trkpt>
<trkpt lat="46.83170501" lon="6.54934698"><ele></ele><time>2014-7-4T17:36:4Z</time></trkpt>
<trkpt lat="46.83143696" lon="6.54906702"><ele></ele><time>2014-7-4T17:36:7Z</time></trkpt>
<trkpt lat="46.83124401" lon="6.54860501"><ele></ele><time>2014-7-4T17:36:10Z</time></trkpt>
<trkpt lat="46.83117997" lon="6.54807997"><ele></ele><time>2014-7-4T17:36:13Z</time></trkpt>
<trkpt lat="46.83119598" lon="6.54756297"><ele></ele><time>2014-7-4T17:36:16Z</time></trkpt>
<trkpt lat="46.83105298" lon="6.54707397"><ele></ele><time>2014-7-4T17:36:19Z</time></trkpt>
<trkpt lat="46.83090898" lon="6.54657399"><ele></ele><time>2014-7-4T17:36:22Z</time></trkpt>
<trkpt lat="46.83077303" lon="6.54605901"><ele></ele><time>2014-7-4T17:36:25Z</time></trkpt>
<trkpt lat="46.83066398" lon="6.54565802"><ele></ele><time>2014-7-4T17:36:28Z</time></trkpt>
<trkpt lat="46.83057304" lon="6.54538100"><ele></ele><time>2014-7-4T17:36:31Z</time></trkpt>
<trkpt lat="46.83052903" lon="6.54521604"><ele></ele><time>2014-7-4T17:36:34Z</time></trkpt>
<trkpt lat="46.83036500" lon="6.54470801"><ele></ele><time>2014-7-4T17:36:37Z</time></trkpt>
<trkpt lat="46.83026601" lon="6.54439604"><ele></ele><time>2014-7-4T17:36:40Z</time></trkpt>
<trkpt lat="46.83021697" lon="6.54424399"><ele></ele><time>2014-7-4T17:36:43Z</time></trkpt>
<trkpt lat="46.83006199" lon="6.54376597"><ele></ele><time>2014-7-4T17:36:46Z</time></trkpt>
<trkpt lat="46.83007800" lon="6.54350898"><ele></ele><time>2014-7-4T17:36:49Z</time></trkpt>
<trkpt lat="46.83037103" lon="6.54303096"><ele></ele><time>2014-7-4T17:36:52Z</time></trkpt>
<trkpt lat="46.83044102" lon="6.54291202"><ele></ele><time>2014-7-4T17:36:55Z</time></trkpt>
<trkpt lat="46.83061897" lon="6.54247901"><ele></ele><time>2014-7-4T17:36:58Z</time></trkpt>
<trkpt lat="46.83071502" lon="6.54251598"><ele></ele><time>2014-7-4T17:37:1Z</time></trkpt>
<trkpt lat="46.83077303" lon="6.54261497"><ele></ele><time>2014-7-4T17:37:4Z</time></trkpt>
<trkpt lat="46.83086699" lon="6.54277003"><ele></ele><time>2014-7-4T17:37:7Z</time></trkpt>
<trkpt lat="46.83096003" lon="6.54286701"><ele></ele><time>2014-7-4T17:37:10Z</time></trkpt>
<trkpt lat="46.83103697" lon="6.54294002"><ele></ele><time>2014-7-4T17:37:13Z</time></trkpt>
<trkpt lat="46.83130997" lon="6.54323598"><ele></ele><time>2014-7-4T17:37:16Z</time></trkpt>
<trkpt lat="46.83146697" lon="6.54334604"><ele></ele><time>2014-7-4T17:37:19Z</time></trkpt>
<trkpt lat="46.83163100" lon="6.54340999"><ele></ele><time>2014-7-4T17:37:22Z</time></trkpt>
<trkpt lat="46.83170401" lon="6.54342801"><ele></ele><time>2014-7-4T17:37:25Z</time></trkpt>
<trkpt lat="46.83205102" lon="6.54355198"><ele></ele><time>2014-7-4T17:37:28Z</time></trkpt>
<trkpt lat="46.83239199" lon="6.54371300"><ele></ele><time>2014-7-4T17:37:31Z</time></trkpt>
<trkpt lat="46.83271604" lon="6.54396798"><ele></ele><time>2014-7-4T17:37:34Z</time></trkpt>
<trkpt lat="46.83297403" lon="6.54433896"><ele></ele><time>2014-7-4T17:37:37Z</time></trkpt>
<trkpt lat="46.83324996" lon="6.54471396"><ele></ele><time>2014-7-4T17:37:40Z</time></trkpt>
<trkpt lat="46.83353503" lon="6.54503901"><ele></ele><time>2014-7-4T17:37:43Z</time></trkpt>
<trkpt lat="46.83389001" lon="6.54512702"><ele></ele><time>2014-7-4T17:37:46Z</time></trkpt>
<trkpt lat="46.83408204" lon="6.54523498"><ele></ele><time>2014-7-4T17:37:49Z</time></trkpt>
<trkpt lat="46.83414004" lon="6.54529097"><ele></ele><time>2014-7-4T17:37:52Z</time></trkpt>
<trkpt lat="46.83450901" lon="6.54550798"><ele></ele><time>2014-7-4T17:37:55Z</time></trkpt>
<trkpt lat="46.83481403" lon="6.54579800"><ele></ele><time>2014-7-4T17:37:58Z</time></trkpt>
<trkpt lat="46.83489701" lon="6.54554604"><ele></ele><time>2014-7-4T17:38:1Z</time></trkpt>
<trkpt lat="46.83489298" lon="6.54555400"><ele></ele><time>2014-7-4T17:38:4Z</time></trkpt>
<trkpt lat="46.83489298" lon="6.54555500"><ele></ele><time>2014-7-4T17:38:7Z</time></trkpt>
<trkpt lat="46.83489097" lon="6.54556003"><ele></ele><time>2014-7-4T17:38:10Z</time></trkpt>
<trkpt lat="46.83488997" lon="6.54556196"><ele></ele><time>2014-7-4T17:38:13Z</time></trkpt>
<trkpt lat="46.83475502" lon="6.54537002"><ele></ele><time>2014-7-4T17:38:16Z</time></trkpt>
<trkpt lat="46.83462602" lon="6.54502602"><ele></ele><time>2014-7-4T17:38:19Z</time></trkpt>
<trkpt lat="46.83454103" lon="6.54450098"><ele></ele><time>2014-7-4T17:38:22Z</time></trkpt>
<trkpt lat="46.83440197" lon="6.54399999"><ele></ele><time>2014-7-4T17:38:25Z</time></trkpt>
<trkpt lat="46.83433299" lon="6.54368903"><ele></ele><time>2014-7-4T17:38:28Z</time></trkpt>
<trkpt lat="46.83421397" lon="6.54318603"><ele></ele><time>2014-7-4T17:38:31Z</time></trkpt>
<trkpt lat="46.83415504" lon="6.54287598"><ele></ele><time>2014-7-4T17:38:34Z</time></trkpt>
<trkpt lat="46.83413300" lon="6.54271798"><ele></ele><time>2014-7-4T17:38:37Z</time></trkpt>
<trkpt lat="46.83405002" lon="6.54218196"><ele></ele><time>2014-7-4T17:38:40Z</time></trkpt>
<trkpt lat="46.83400098" lon="6.54165801"><ele></ele><time>2014-7-4T17:38:43Z</time></trkpt>
<trkpt lat="46.83403501" lon="6.54159900"><ele></ele><time>2014-7-4T17:38:46Z</time></trkpt>
<trkpt lat="46.83402102" lon="6.54157000"><ele></ele><time>2014-7-4T17:38:49Z</time></trkpt>
<trkpt lat="46.83401900" lon="6.54156304"><ele></ele><time>2014-7-4T17:38:52Z</time></trkpt>
<trkpt lat="46.83393502" lon="6.54117596"><ele></ele><time>2014-7-4T17:38:55Z</time></trkpt>
<trkpt lat="46.83389696" lon="6.54090900"><ele></ele><time>2014-7-4T17:38:58Z</time></trkpt>
<trkpt lat="46.83390199" lon="6.54064002"><ele></ele><time>2014-7-4T17:39:1Z</time></trkpt>
<trkpt lat="46.83406997" lon="6.54035001"><ele></ele><time>2014-7-4T17:39:4Z</time></trkpt>
<trkpt lat="46.83398003" lon="6.53983603"><ele></ele><time>2014-7-4T17:39:7Z</time></trkpt>
<trkpt lat="46.83386704" lon="6.53960201"><ele></ele><time>2014-7-4T17:39:10Z</time></trkpt>
<trkpt lat="46.83372304" lon="6.53937100"><ele></ele><time>2014-7-4T17:39:13Z</time></trkpt>
<trkpt lat="46.83368901" lon="6.53929397"><ele></ele><time>2014-7-4T17:39:16Z</time></trkpt>
<trkpt lat="46.83345901" lon="6.53886197"><ele></ele><time>2014-7-4T17:39:19Z</time></trkpt>
<trkpt lat="46.83334200" lon="6.53862703"><ele></ele><time>2014-7-4T17:39:22Z</time></trkpt>
<trkpt lat="46.83326002" lon="6.53851597"><ele></ele><time>2014-7-4T17:39:25Z</time></trkpt>
<trkpt lat="46.83318098" lon="6.53842603"><ele></ele><time>2014-7-4T17:39:28Z</time></trkpt>
<trkpt lat="46.83288602" lon="6.53806100"><ele></ele><time>2014-7-4T17:39:31Z</time></trkpt>
<trkpt lat="46.83267999" lon="6.53775397"><ele></ele><time>2014-7-4T17:39:34Z</time></trkpt>
<trkpt lat="46.83260296" lon="6.53724401"><ele></ele><time>2014-7-4T17:39:37Z</time></trkpt>
<trkpt lat="46.83277303" lon="6.53675803"><ele></ele><time>2014-7-4T17:39:40Z</time></trkpt>
<trkpt lat="46.83261101" lon="6.53621597"><ele></ele><time>2014-7-4T17:39:43Z</time></trkpt>
<trkpt lat="46.83238101" lon="6.53578397"><ele></ele><time>2014-7-4T17:39:46Z</time></trkpt>
<trkpt lat="46.83213400" lon="6.53546303"><ele></ele><time>2014-7-4T17:39:49Z</time></trkpt>
<trkpt lat="46.83191900" lon="6.53524099"><ele></ele><time>2014-7-4T17:39:52Z</time></trkpt>
<trkpt lat="46.83187198" lon="6.53520201"><ele></ele><time>2014-7-4T17:39:55Z</time></trkpt>
<trkpt lat="46.83171901" lon="6.53496900"><ele></ele><time>2014-7-4T17:39:58Z</time></trkpt>
<trkpt lat="46.83149102" lon="6.53449500"><ele></ele><time>2014-7-4T17:40:1Z</time></trkpt>
<trkpt lat="46.83133202" lon="6.53402503"><ele></ele><time>2014-7-4T17:40:4Z</time></trkpt>
<trkpt lat="46.83121299" lon="6.53368900"><ele></ele><time>2014-7-4T17:40:7Z</time></trkpt>
<trkpt lat="46.83105399" lon="6.53320000"><ele></ele><time>2014-7-4T17:40:10Z</time></trkpt>
<trkpt lat="46.83094896" lon="6.53267797"><ele></ele><time>2014-7-4T17:40:13Z</time></trkpt>
<trkpt lat="46.83100797" lon="6.53262701"><ele></ele><time>2014-7-4T17:40:16Z</time></trkpt>
<trkpt lat="46.83106698" lon="6.53253799"><ele></ele><time>2014-7-4T17:40:19Z</time></trkpt>
<trkpt lat="46.83105701" lon="6.53230498"><ele></ele><time>2014-7-4T17:40:22Z</time></trkpt>
<trkpt lat="46.83100403" lon="6.53205402"><ele></ele><time>2014-7-4T17:40:25Z</time></trkpt>
<trkpt lat="46.83102298" lon="6.53204002"><ele></ele><time>2014-7-4T17:40:28Z</time></trkpt>
<trkpt lat="46.83100202" lon="6.53199703"><ele></ele><time>2014-7-4T17:40:31Z</time></trkpt>
<trkpt lat="46.83088400" lon="6.53173400"><ele></ele><time>2014-7-4T17:40:34Z</time></trkpt>
<trkpt lat="46.83085400" lon="6.53161699"><ele></ele><time>2014-7-4T17:40:37Z</time></trkpt>
<trkpt lat="46.83084000" lon="6.53157399"><ele></ele><time>2014-7-4T17:40:40Z</time></trkpt>
<trkpt lat="46.83081804" lon="6.53152596"><ele></ele><time>2014-7-4T17:40:43Z</time></trkpt>
<trkpt lat="46.83081896" lon="6.53152504"><ele></ele><time>2014-7-4T17:40:46Z</time></trkpt>
<trkpt lat="46.83078703" lon="6.53131197"><ele></ele><time>2014-7-4T17:40:49Z</time></trkpt>
<trkpt lat="46.83059500" lon="6.53083303"><ele></ele><time>2014-7-4T17:40:52Z</time></trkpt>
<trkpt lat="46.83058502" lon="6.53078400"><ele></ele><time>2014-7-4T17:40:55Z</time></trkpt>
<trkpt lat="46.83049601" lon="6.53051997"><ele></ele><time>2014-7-4T17:40:58Z</time></trkpt>
<trkpt lat="46.83044001" lon="6.53038703"><ele></ele><time>2014-7-4T17:41:1Z</time></trkpt>
<trkpt lat="46.83039098" lon="6.53028804"><ele></ele><time>2014-7-4T17:41:4Z</time></trkpt>
<trkpt lat="46.83015201" lon="6.52988202"><ele></ele><time>2014-7-4T17:41:7Z</time></trkpt>
<trkpt lat="46.82992402" lon="6.52938900"><ele></ele><time>2014-7-4T17:41:10Z</time></trkpt>
<trkpt lat="46.82974197" lon="6.52888197"><ele></ele><time>2014-7-4T17:41:13Z</time></trkpt>
<trkpt lat="46.82959302" lon="6.52867603"><ele></ele><time>2014-7-4T17:41:16Z</time></trkpt>
<trkpt lat="46.82931198" lon="6.52817404"><ele></ele><time>2014-7-4T17:41:19Z</time></trkpt>
<trkpt lat="46.82914300" lon="6.52785402"><ele></ele><time>2014-7-4T17:41:22Z</time></trkpt>
<trkpt lat="46.82893001" lon="6.52746996"><ele></ele><time>2014-7-4T17:41:25Z</time></trkpt>
<trkpt lat="46.82868199" lon="6.52688499"><ele></ele><time>2014-7-4T17:41:28Z</time></trkpt>
<trkpt lat="46.82864402" lon="6.52681600"><ele></ele><time>2014-7-4T17:41:31Z</time></trkpt>
<trkpt lat="46.82847697" lon="6.52657402"><ele></ele><time>2014-7-4T17:41:34Z</time></trkpt>
<trkpt lat="46.82828997" lon="6.52620496"><ele></ele><time>2014-7-4T17:41:37Z</time></trkpt>
<trkpt lat="46.82802603" lon="6.52583901"><ele></ele><time>2014-7-4T17:41:40Z</time></trkpt>
<trkpt lat="46.82782704" lon="6.52565100"><ele></ele><time>2014-7-4T17:41:43Z</time></trkpt>
<trkpt lat="46.82778002" lon="6.52559602"><ele></ele><time>2014-7-4T17:41:46Z</time></trkpt>
<trkpt lat="46.82768103" lon="6.52549502"><ele></ele><time>2014-7-4T17:41:49Z</time></trkpt>
<trkpt lat="46.82756502" lon="6.52539804"><ele></ele><time>2014-7-4T17:41:52Z</time></trkpt>
<trkpt lat="46.82738699" lon="6.52523601"><ele></ele><time>2014-7-4T17:41:55Z</time></trkpt>
<trkpt lat="46.82712003" lon="6.52505103"><ele></ele><time>2014-7-4T17:41:58Z</time></trkpt>
<trkpt lat="46.82667604" lon="6.52465599"><ele></ele><time>2014-7-4T17:42:1Z</time></trkpt>
<trkpt lat="46.82643699" lon="6.52438802"><ele></ele><time>2014-7-4T17:42:4Z</time></trkpt>
<trkpt lat="46.82625501" lon="6.52417696"><ele></ele><time>2014-7-4T17:42:7Z</time></trkpt>
<trkpt lat="46.82596701" lon="6.52367002"><ele></ele><time>2014-7-4T17:42:10Z</time></trkpt>
<trkpt lat="46.82589300" lon="6.52348696"><ele></ele><time>2014-7-4T17:42:13Z</time></trkpt>
<trkpt lat="46.82575000" lon="6.52299503"><ele></ele><time>2014-7-4T17:42:16Z</time></trkpt>
<trkpt lat="46.82563500" lon="6.52228299"><ele></ele><time>2014-7-4T17:42:19Z</time></trkpt>
<trkpt lat="46.82558698" lon="6.52169097"><ele></ele><time>2014-7-4T17:42:22Z</time></trkpt>
<trkpt lat="46.82543904" lon="6.52103199"><ele></ele><time>2014-7-4T17:42:25Z</time></trkpt>
<trkpt lat="46.82541900" lon="6.52092797"><ele></ele><time>2014-7-4T17:42:28Z</time></trkpt>
<trkpt lat="46.82517299" lon="6.52035196"><ele></ele><time>2014-7-4T17:42:31Z</time></trkpt>
<trkpt lat="46.82494903" lon="6.51986799"><ele></ele><time>2014-7-4T17:42:34Z</time></trkpt>
<trkpt lat="46.82475801" lon="6.51940296"><ele></ele><time>2014-7-4T17:42:37Z</time></trkpt>
<trkpt lat="46.82470403" lon="6.51921898"><ele></ele><time>2014-7-4T17:42:40Z</time></trkpt>
<trkpt lat="46.82485398" lon="6.51872403"><ele></ele><time>2014-7-4T17:42:43Z</time></trkpt>
<trkpt lat="46.82492598" lon="6.51845497"><ele></ele><time>2014-7-4T17:42:46Z</time></trkpt>
<trkpt lat="46.82492799" lon="6.51829404"><ele></ele><time>2014-7-4T17:42:49Z</time></trkpt>
<trkpt lat="46.82487904" lon="6.51782004"><ele></ele><time>2014-7-4T17:42:52Z</time></trkpt>
<trkpt lat="46.82486203" lon="6.51762600"><ele></ele><time>2014-7-4T17:42:55Z</time></trkpt>
<trkpt lat="46.82482498" lon="6.51705201"><ele></ele><time>2014-7-4T17:42:58Z</time></trkpt>
<trkpt lat="46.82473303" lon="6.51653602"><ele></ele><time>2014-7-4T17:43:1Z</time></trkpt>
<trkpt lat="46.82460998" lon="6.51602799"><ele></ele><time>2014-7-4T17:43:4Z</time></trkpt>
<trkpt lat="46.82450202" lon="6.51548702"><ele></ele><time>2014-7-4T17:43:7Z</time></trkpt>
<trkpt lat="46.82438099" lon="6.51492602"><ele></ele><time>2014-7-4T17:43:10Z</time></trkpt>
<trkpt lat="46.82423003" lon="6.51435899"><ele></ele><time>2014-7-4T17:43:13Z</time></trkpt>
<trkpt lat="46.82421000" lon="6.51428204"><ele></ele><time>2014-7-4T17:43:16Z</time></trkpt>
<trkpt lat="46.82404898" lon="6.51366597"><ele></ele><time>2014-7-4T17:43:19Z</time></trkpt>
<trkpt lat="46.82393398" lon="6.51312903"><ele></ele><time>2014-7-4T17:43:22Z</time></trkpt>
<trkpt lat="46.82399500" lon="6.51253399"><ele></ele><time>2014-7-4T17:43:25Z</time></trkpt>
<trkpt lat="46.82401101" lon="6.51247096"><ele></ele><time>2014-7-4T17:43:28Z</time></trkpt>
<trkpt lat="46.82425601" lon="6.51218296"><ele></ele><time>2014-7-4T17:43:31Z</time></trkpt>
<trkpt lat="46.82452901" lon="6.51217399"><ele></ele><time>2014-7-4T17:43:34Z</time></trkpt>
<trkpt lat="46.82465700" lon="6.51219402"><ele></ele><time>2014-7-4T17:43:37Z</time></trkpt>
<trkpt lat="46.82484501" lon="6.51224297"><ele></ele><time>2014-7-4T17:43:40Z</time></trkpt>
<trkpt lat="46.82515397" lon="6.51245596"><ele></ele><time>2014-7-4T17:43:43Z</time></trkpt>
<trkpt lat="46.82534197" lon="6.51254799"><ele></ele><time>2014-7-4T17:43:46Z</time></trkpt>
<trkpt lat="46.82545002" lon="6.51259099"><ele></ele><time>2014-7-4T17:43:49Z</time></trkpt>
<trkpt lat="46.82558203" lon="6.51268596"><ele></ele><time>2014-7-4T17:43:52Z</time></trkpt>
<trkpt lat="46.82592301" lon="6.51294102"><ele></ele><time>2014-7-4T17:43:55Z</time></trkpt>
<trkpt lat="46.82625300" lon="6.51315400"><ele></ele><time>2014-7-4T17:43:58Z</time></trkpt>
<trkpt lat="46.82661803" lon="6.51318401"><ele></ele><time>2014-7-4T17:44:1Z</time></trkpt>
<trkpt lat="46.82699497" lon="6.51306700"><ele></ele><time>2014-7-4T17:44:4Z</time></trkpt>
<trkpt lat="46.82711600" lon="6.51256199"><ele></ele><time>2014-7-4T17:44:7Z</time></trkpt>
<trkpt lat="46.82709203" lon="6.51235999"><ele></ele><time>2014-7-4T17:44:10Z</time></trkpt>
<trkpt lat="46.82700201" lon="6.51202597"><ele></ele><time>2014-7-4T17:44:13Z</time></trkpt>
<trkpt lat="46.82691098" lon="6.51170804"><ele></ele><time>2014-7-4T17:44:16Z</time></trkpt>
<trkpt lat="46.82684996" lon="6.51152900"><ele></ele><time>2014-7-4T17:44:19Z</time></trkpt>
<trkpt lat="46.82682700" lon="6.51146899"><ele></ele><time>2014-7-4T17:44:22Z</time></trkpt>
<trkpt lat="46.82673597" lon="6.51107596"><ele></ele><time>2014-7-4T17:44:25Z</time></trkpt>
<trkpt lat="46.82671200" lon="6.51098200"><ele></ele><time>2014-7-4T17:44:28Z</time></trkpt>
<trkpt lat="46.82661301" lon="6.51058696"><ele></ele><time>2014-7-4T17:44:31Z</time></trkpt>
<trkpt lat="46.82643296" lon="6.51009302"><ele></ele><time>2014-7-4T17:44:34Z</time></trkpt>
<trkpt lat="46.82639197" lon="6.50993996"><ele></ele><time>2014-7-4T17:44:37Z</time></trkpt>
<trkpt lat="46.82632903" lon="6.50967300"><ele></ele><time>2014-7-4T17:44:40Z</time></trkpt>
<trkpt lat="46.82629801" lon="6.50952497"><ele></ele><time>2014-7-4T17:44:43Z</time></trkpt>
<trkpt lat="46.82615099" lon="6.50904302"><ele></ele><time>2014-7-4T17:44:46Z</time></trkpt>
<trkpt lat="46.82584799" lon="6.50862199"><ele></ele><time>2014-7-4T17:44:49Z</time></trkpt>
<trkpt lat="46.82580197" lon="6.50855896"><ele></ele><time>2014-7-4T17:44:52Z</time></trkpt>
<trkpt lat="46.82549201" lon="6.50818999"><ele></ele><time>2014-7-4T17:44:55Z</time></trkpt>
<trkpt lat="46.82546401" lon="6.50815303"><ele></ele><time>2014-7-4T17:44:58Z</time></trkpt>
<trkpt lat="46.82527299" lon="6.50796301"><ele></ele><time>2014-7-4T17:45:1Z</time></trkpt>
<trkpt lat="46.82499999" lon="6.50745599"><ele></ele><time>2014-7-4T17:45:4Z</time></trkpt>
<trkpt lat="46.82485599" lon="6.50697101"><ele></ele><time>2014-7-4T17:45:7Z</time></trkpt>
<trkpt lat="46.82466497" lon="6.50649399"><ele></ele><time>2014-7-4T17:45:10Z</time></trkpt>
<trkpt lat="46.82449599" lon="6.50599603"><ele></ele><time>2014-7-4T17:45:13Z</time></trkpt>
<trkpt lat="46.82430999" lon="6.50548498"><ele></ele><time>2014-7-4T17:45:16Z</time></trkpt>
<trkpt lat="46.82409902" lon="6.50504803"><ele></ele><time>2014-7-4T17:45:19Z</time></trkpt>
<trkpt lat="46.82384203" lon="6.50460698"><ele></ele><time>2014-7-4T17:45:22Z</time></trkpt>
<trkpt lat="46.82355998" lon="6.50420004"><ele></ele><time>2014-7-4T17:45:25Z</time></trkpt>
<trkpt lat="46.82342503" lon="6.50372101"><ele></ele><time>2014-7-4T17:45:28Z</time></trkpt>
<trkpt lat="46.82348002" lon="6.50358799"><ele></ele><time>2014-7-4T17:45:31Z</time></trkpt>
<trkpt lat="46.82357901" lon="6.50334500"><ele></ele><time>2014-7-4T17:45:34Z</time></trkpt>
<trkpt lat="46.82380700" lon="6.50301198"><ele></ele><time>2014-7-4T17:45:37Z</time></trkpt>
<trkpt lat="46.82418401" lon="6.50291601"><ele></ele><time>2014-7-4T17:45:40Z</time></trkpt>
<trkpt lat="46.82447101" lon="6.50284200"><ele></ele><time>2014-7-4T17:45:43Z</time></trkpt>
<trkpt lat="46.82449800" lon="6.50282800"><ele></ele><time>2014-7-4T17:45:46Z</time></trkpt>
<trkpt lat="46.82447797" lon="6.50267696"><ele></ele><time>2014-7-4T17:45:49Z</time></trkpt>
<trkpt lat="46.82421301" lon="6.50269498"><ele></ele><time>2014-7-4T17:45:52Z</time></trkpt>
<trkpt lat="46.82405300" lon="6.50269196"><ele></ele><time>2014-7-4T17:45:55Z</time></trkpt>
<trkpt lat="46.82384999" lon="6.50268300"><ele></ele><time>2014-7-4T17:45:58Z</time></trkpt>
<trkpt lat="46.82346703" lon="6.50265098"><ele></ele><time>2014-7-4T17:46:1Z</time></trkpt>
<trkpt lat="46.82316201" lon="6.50266497"><ele></ele><time>2014-7-4T17:46:4Z</time></trkpt>
<trkpt lat="46.82292002" lon="6.50306596"><ele></ele><time>2014-7-4T17:46:7Z</time></trkpt>
<trkpt lat="46.82264702" lon="6.50307803"><ele></ele><time>2014-7-4T17:46:10Z</time></trkpt>
<trkpt lat="46.82256304" lon="6.50299002"><ele></ele><time>2014-7-4T17:46:13Z</time></trkpt>
<trkpt lat="46.82257704" lon="6.50293596"><ele></ele><time>2014-7-4T17:46:16Z</time></trkpt>
<trkpt lat="46.82257997" lon="6.50286798"><ele></ele><time>2014-7-4T17:46:19Z</time></trkpt>
<trkpt lat="46.82262196" lon="6.50277402"><ele></ele><time>2014-7-4T17:46:22Z</time></trkpt>
<trkpt lat="46.82273403" lon="6.50241796"><ele></ele><time>2014-7-4T17:46:25Z</time></trkpt>
<trkpt lat="46.82304500" lon="6.50220003"><ele></ele><time>2014-7-4T17:46:28Z</time></trkpt>
<trkpt lat="46.82313401" lon="6.50212904"><ele></ele><time>2014-7-4T17:46:31Z</time></trkpt>
<trkpt lat="46.82333501" lon="6.50199400"><ele></ele><time>2014-7-4T17:46:34Z</time></trkpt>
<trkpt lat="46.82363098" lon="6.50179904"><ele></ele><time>2014-7-4T17:46:37Z</time></trkpt>
<trkpt lat="46.82398201" lon="6.50140299"><ele></ele><time>2014-7-4T17:46:40Z</time></trkpt>
<trkpt lat="46.82394999" lon="6.50138699"><ele></ele><time>2014-7-4T17:46:43Z</time></trkpt>
<trkpt lat="46.82393800" lon="6.50138900"><ele></ele><time>2014-7-4T17:46:46Z</time></trkpt>
</trkseg></trk></gpx>